Observation data for Sierra Blanca on 07/12/2020      Previous  Date  Next       Current Mesonet Observations  Soil Data  Daily Summary Page  Observations in Plain Language
KSB1 120500Z 17006KT 29/07 A3016 RMK A01 T02940068  RH  024%=      5-min Rain = 0
KSB1 120501Z 17007KT 30/07 A3016 RMK A01 T02950068  RH  024%=      5-min Rain = 0
KSB1 120502Z 17007KT 30/07 A3016 RMK A01 T02950068  RH  024%=      5-min Rain = 0
KSB1 120503Z 17008KT 30/07 A3016 RMK A01 T02970067  RH  023%=      5-min Rain = 0
KSB1 120504Z 18007KT 30/07 A3016 RMK A01 T02990065  RH  023%=      5-min Rain = 0
KSB1 120505Z 17007KT 30/06 A3016 RMK A01 T03000064  RH  023%=      5-min Rain = 0
KSB1 120506Z 17007KT 30/06 A3016 RMK A01 T03010063  RH  022%=      5-min Rain = 0
KSB1 120507Z 18007KT 30/06 A3016 RMK A01 T03010063  RH  022%=      5-min Rain = 0
KSB1 120508Z 18007KT 30/06 A3016 RMK A01 T03000061  RH  022%=      5-min Rain = 0
KSB1 120509Z 18007KT 30/06 A3016 RMK A01 T03000058  RH  022%=      5-min Rain = 0
KSB1 120510Z 18007KT 30/06 A3016 RMK A01 T03010057  RH  021%=      5-min Rain = 0
KSB1 120511Z 18007KT 30/06 A3016 RMK A01 T03010056  RH  021%=      5-min Rain = 0
KSB1 120512Z 17007KT 30/05 A3016 RMK A01 T03010053  RH  021%=      5-min Rain = 0
KSB1 120513Z 18007KT 30/05 A3016 RMK A01 T03020053  RH  021%=      5-min Rain = 0
KSB1 120514Z 18007KT 30/05 A3016 RMK A01 T03020052  RH  021%=      5-min Rain = 0
KSB1 120515Z 18007KT 30/05 A3016 RMK A01 T03010051  RH  020%=      5-min Rain = 0
KSB1 120516Z 18008KT 30/05 A3016 RMK A01 T03020050  RH  020%=      5-min Rain = 0
KSB1 120517Z 18008KT 30/05 A3016 RMK A01 T03020049  RH  020%=      5-min Rain = 0
KSB1 120518Z 17009KT 30/05 A3016 RMK A01 T03030048  RH  020%=      5-min Rain = 0
KSB1 120519Z 17009KT 31/05 A3016 RMK A01 T03050048  RH  020%=      5-min Rain = 0
KSB1 120520Z 17010KT 31/05 A3016 RMK A01 T03060046  RH  019%=      5-min Rain = 0
KSB1 120521Z 16010KT 31/05 A3016 RMK A01 T03090047  RH  019%=      5-min Rain = 0
KSB1 120522Z 17010KT 31/05 A3016 RMK A01 T03110046  RH  019%=      5-min Rain = 0
KSB1 120523Z 16009KT 31/05 A3016 RMK A01 T03120045  RH  019%=      5-min Rain = 0
KSB1 120524Z 17010KT 31/05 A3016 RMK A01 T03120045  RH  019%=      5-min Rain = 0
KSB1 120525Z 16009KT 31/04 A3016 RMK A01 T03120044  RH  018%=      5-min Rain = 0
KSB1 120526Z 16010KT 31/04 A3016 RMK A01 T03130044  RH  018%=      5-min Rain = 0
KSB1 120527Z 15008KT 31/04 A3016 RMK A01 T03130044  RH  018%=      5-min Rain = 0
KSB1 120528Z 15009KT 31/05 A3016 RMK A01 T03130045  RH  018%=      5-min Rain = 0
KSB1 120529Z 15009KT 31/04 A3016 RMK A01 T03110044  RH  019%=      5-min Rain = 0
KSB1 120530Z 15010KT 31/04 A3016 RMK A01 T03100044  RH  019%=      5-min Rain = 0
KSB1 120531Z 14007KT 31/04 A3016 RMK A01 T03110044  RH  019%=      5-min Rain = 0
KSB1 120532Z 14008KT 31/05 A3016 RMK A01 T03110045  RH  019%=      5-min Rain = 0
KSB1 120533Z 14007KT 31/05 A3016 RMK A01 T03090045  RH  019%=      5-min Rain = 0
KSB1 120534Z 14008KT 31/05 A3016 RMK A01 T03080046  RH  019%=      5-min Rain = 0
KSB1 120535Z 13008KT 31/05 A3016 RMK A01 T03070047  RH  019%=      5-min Rain = 0
KSB1 120536Z 13008KT 31/05 A3016 RMK A01 T03060047  RH  019%=      5-min Rain = 0
KSB1 120537Z 13007KT 31/05 A3016 RMK A01 T03060047  RH  020%=      5-min Rain = 0
KSB1 120538Z 12006KT 30/05 A3016 RMK A01 T03040047  RH  020%=      5-min Rain = 0
KSB1 120539Z 12007KT 30/05 A3016 RMK A01 T03010047  RH  020%=      5-min Rain = 0
KSB1 120540Z 12007KT 30/05 A3016 RMK A01 T02980046  RH  020%=      5-min Rain = 0
KSB1 120541Z 12008KT 30/05 A3016 RMK A01 T02960047  RH  020%=      5-min Rain = 0
KSB1 120542Z 14008KT 30/05 A3016 RMK A01 T02960047  RH  021%=      5-min Rain = 0
KSB1 120543Z 14008KT 30/05 A3016 RMK A01 T02970047  RH  020%=      5-min Rain = 0
KSB1 120544Z 14008KT 30/05 A3016 RMK A01 T03000048  RH  020%=      5-min Rain = 0
KSB1 120545Z 15008KT 30/05 A3016 RMK A01 T03010047  RH  020%=      5-min Rain = 0
KSB1 120546Z 16005KT 30/05 A3016 RMK A01 T03020047  RH  020%=      5-min Rain = 0
KSB1 120547Z 16005KT 30/05 A3016 RMK A01 T03010047  RH  020%=      5-min Rain = 0
KSB1 120548Z 16006KT 30/05 A3016 RMK A01 T02980045  RH  020%=      5-min Rain = 0
KSB1 120549Z 16005KT 30/05 A3015 RMK A01 T02980046  RH  020%=      5-min Rain = 0
KSB1 120550Z 15006KT 30/05 A3015 RMK A01 T02990047  RH  020%=      5-min Rain = 0
KSB1 120551Z 14006KT 30/05 A3015 RMK A01 T02990047  RH  020%=      5-min Rain = 0
KSB1 120552Z 15006KT 30/05 A3015 RMK A01 T03000047  RH  020%=      5-min Rain = 0
KSB1 120553Z 16006KT 30/05 A3015 RMK A01 T03010048  RH  020%=      5-min Rain = 0
KSB1 120554Z 16006KT 30/05 A3015 RMK A01 T03000047  RH  020%=      5-min Rain = 0
KSB1 120555Z 16005KT 30/05 A3015 RMK A01 T03000047  RH  020%=      5-min Rain = 0
KSB1 120556Z 16005KT 30/05 A3015 RMK A01 T02990047  RH  020%=      5-min Rain = 0
KSB1 120557Z 15006KT 30/05 A3015 RMK A01 T02990047  RH  020%=      5-min Rain = 0
KSB1 120558Z 17007KT 30/05 A3015 RMK A01 T02990047  RH  020%=      5-min Rain = 0
KSB1 120559Z 17010KT 30/05 A3015 RMK A01 T02990045  RH  020%=      5-min Rain = 0
KSB1 120600Z 18009KT 30/04 A3015 RMK A01 T03030043  RH  019%=      5-min Rain = 0
KSB1 120601Z 17011KT 31/04 A3015 RMK A01 T03080044  RH  019%=      5-min Rain = 0
KSB1 120602Z 18012KT 31/04 A3015 RMK A01 T03120043  RH  018%=      5-min Rain = 0
KSB1 120603Z 17013KT 31/04 A3015 RMK A01 T03140043  RH  018%=      5-min Rain = 0
KSB1 120604Z 18011KT 32/04 A3015 RMK A01 T03180043  RH  018%=      5-min Rain = 0
KSB1 120605Z 18011KT 32/04 A3015 RMK A01 T03180043  RH  018%=      5-min Rain = 0
KSB1 120606Z 18010KT 32/04 A3015 RMK A01 T03180042  RH  018%=      5-min Rain = 0
KSB1 120607Z 18010KT 32/04 A3015 RMK A01 T03170042  RH  018%=      5-min Rain = 0
KSB1 120608Z 18012KT 32/04 A3015 RMK A01 T03160042  RH  018%=      5-min Rain = 0
KSB1 120609Z 18010KT 32/04 A3015 RMK A01 T03160042  RH  018%=      5-min Rain = 0
KSB1 120610Z 19010KT 32/04 A3015 RMK A01 T03160042  RH  018%=      5-min Rain = 0
KSB1 120611Z 18010KT 32/04 A3015 RMK A01 T03160042  RH  018%=      5-min Rain = 0
KSB1 120612Z 18011KT 32/04 A3015 RMK A01 T03150042  RH  018%=      5-min Rain = 0
KSB1 120613Z 18011KT 32/04 A3015 RMK A01 T03160042  RH  018%=      5-min Rain = 0
KSB1 120614Z 18011KT 32/04 A3015 RMK A01 T03160042  RH  018%=      5-min Rain = 0
KSB1 120615Z 18011KT 32/04 A3015 RMK A01 T03160042  RH  018%=      5-min Rain = 0
KSB1 120616Z 18011KT 32/04 A3015 RMK A01 T03170043  RH  018%=      5-min Rain = 0
KSB1 120617Z 18013KT 32/04 A3015 RMK A01 T03170042  RH  018%=      5-min Rain = 0
KSB1 120618Z 18012KT 32/04 A3015 RMK A01 T03180043  RH  018%=      5-min Rain = 0
KSB1 120619Z 18012KT 32/04 A3015 RMK A01 T03180043  RH  018%=      5-min Rain = 0
KSB1 120620Z 18012KT 32/04 A3015 RMK A01 T03190043  RH  018%=      5-min Rain = 0
KSB1 120621Z 18011KT 32/04 A3015 RMK A01 T03190043  RH  018%=      5-min Rain = 0
KSB1 120622Z 18009KT 32/04 A3015 RMK A01 T03180042  RH  018%=      5-min Rain = 0
KSB1 120623Z 18011KT 32/04 A3015 RMK A01 T03160042  RH  018%=      5-min Rain = 0
KSB1 120624Z 18011KT 32/04 A3015 RMK A01 T03160043  RH  018%=      5-min Rain = 0
KSB1 120625Z 18011KT 32/04 A3015 RMK A01 T03160043  RH  018%=      5-min Rain = 0
KSB1 120626Z 17010KT 32/04 A3015 RMK A01 T03160043  RH  018%=      5-min Rain = 0
KSB1 120627Z 18010KT 32/04 A3015 RMK A01 T03160043  RH  018%=      5-min Rain = 0
KSB1 120628Z 16008KT 32/04 A3015 RMK A01 T03150043  RH  018%=      5-min Rain = 0
KSB1 120629Z 15010KT 32/04 A3015 RMK A01 T03150042  RH  018%=      5-min Rain = 0
KSB1 120630Z 15008KT 31/04 A3015 RMK A01 T03140043  RH  018%=      5-min Rain = 0
KSB1 120631Z 13007KT 31/04 A3015 RMK A01 T03110044  RH  019%=      5-min Rain = 0
KSB1 120632Z 12006KT 30/04 A3015 RMK A01 T03040044  RH  019%=      5-min Rain = 0
KSB1 120633Z 13005KT 30/04 A3015 RMK A01 T02980043  RH  020%=      5-min Rain = 0
KSB1 120634Z 13006KT 29/04 A3015 RMK A01 T02940043  RH  020%=      5-min Rain = 0
KSB1 120635Z 13007KT 29/04 A3015 RMK A01 T02910043  RH  021%=      5-min Rain = 0
KSB1 120636Z 13007KT 29/04 A3015 RMK A01 T02900043  RH  021%=      5-min Rain = 0
KSB1 120637Z 14006KT 29/04 A3015 RMK A01 T02900044  RH  021%=      5-min Rain = 0
KSB1 120638Z 13006KT 29/04 A3015 RMK A01 T02900044  RH  021%=      5-min Rain = 0
KSB1 120639Z 15005KT 29/04 A3015 RMK A01 T02900044  RH  021%=      5-min Rain = 0
KSB1 120640Z 14005KT 29/04 A3015 RMK A01 T02900044  RH  021%=      5-min Rain = 0
KSB1 120641Z 16006KT 29/04 A3015 RMK A01 T02900043  RH  021%=      5-min Rain = 0
KSB1 120642Z 16005KT 29/04 A3015 RMK A01 T02900044  RH  021%=      5-min Rain = 0
KSB1 120643Z 17005KT 29/04 A3015 RMK A01 T02920044  RH  021%=      5-min Rain = 0
KSB1 120644Z 15004KT 29/05 A3015 RMK A01 T02930045  RH  021%=      5-min Rain = 0
KSB1 120645Z 16004KT 29/04 A3015 RMK A01 T02930044  RH  020%=      5-min Rain = 0
KSB1 120646Z 15003KT 29/04 A3015 RMK A01 T02930044  RH  021%=      5-min Rain = 0
KSB1 120647Z 12003KT 29/04 A3015 RMK A01 T02920044  RH  021%=      5-min Rain = 0
KSB1 120648Z 12006KT 29/04 A3014 RMK A01 T02910043  RH  021%=      5-min Rain = 0
KSB1 120649Z 11008KT 29/04 A3014 RMK A01 T02910044  RH  021%=      5-min Rain = 0
KSB1 120650Z 11008KT 29/05 A3014 RMK A01 T02930045  RH  021%=      5-min Rain = 0
KSB1 120651Z 11009KT 30/05 A3014 RMK A01 T02950045  RH  020%=      5-min Rain = 0
KSB1 120652Z 10007KT 30/04 A3015 RMK A01 T02950044  RH  020%=      5-min Rain = 0
KSB1 120653Z 10008KT 29/04 A3015 RMK A01 T02940043  RH  020%=      5-min Rain = 0
KSB1 120654Z 10008KT 29/04 A3015 RMK A01 T02920042  RH  020%=      5-min Rain = 0
KSB1 120655Z 10007KT 29/04 A3015 RMK A01 T02900042  RH  021%=      5-min Rain = 0
KSB1 120656Z 10007KT 29/04 A3015 RMK A01 T02880042  RH  021%=      5-min Rain = 0
KSB1 120657Z 09007KT 29/04 A3015 RMK A01 T02870042  RH  021%=      5-min Rain = 0
KSB1 120658Z 10005KT 29/04 A3015 RMK A01 T02850042  RH  021%=      5-min Rain = 0
KSB1 120659Z 11005KT 28/04 A3015 RMK A01 T02830041  RH  021%=      5-min Rain = 0
KSB1 120700Z 11004KT 28/04 A3015 RMK A01 T02830042  RH  021%=      5-min Rain = 0
KSB1 120701Z 12005KT 28/04 A3015 RMK A01 T02830042  RH  021%=      5-min Rain = 0
KSB1 120702Z 11004KT 28/04 A3014 RMK A01 T02840042  RH  021%=      5-min Rain = 0
KSB1 120703Z 12004KT 29/04 A3014 RMK A01 T02860043  RH  021%=      5-min Rain = 0
KSB1 120704Z 09003KT 29/04 A3014 RMK A01 T02870043  RH  021%=      5-min Rain = 0
KSB1 120705Z 08003KT 29/04 A3014 RMK A01 T02870042  RH  021%=      5-min Rain = 0
KSB1 120706Z 09003KT 29/04 A3014 RMK A01 T02860041  RH  021%=      5-min Rain = 0
KSB1 120707Z 06002KT 28/04 A3014 RMK A01 T02840041  RH  021%=      5-min Rain = 0
KSB1 120708Z 05004KT 28/04 A3014 RMK A01 T02830041  RH  021%=      5-min Rain = 0
KSB1 120709Z 07003KT 28/04 A3014 RMK A01 T02820040  RH  021%=      5-min Rain = 0
KSB1 120710Z 05003KT 28/04 A3014 RMK A01 T02810041  RH  021%=      5-min Rain = 0
KSB1 120711Z 06002KT 28/04 A3014 RMK A01 T02810040  RH  021%=      5-min Rain = 0
KSB1 120712Z 07003KT 28/04 A3014 RMK A01 T02800040  RH  022%=      5-min Rain = 0
KSB1 120713Z 07003KT 28/04 A3014 RMK A01 T02790039  RH  022%=      5-min Rain = 0
KSB1 120714Z 07003KT 28/04 A3014 RMK A01 T02790039  RH  022%=      5-min Rain = 0
KSB1 120715Z 07003KT 28/04 A3014 RMK A01 T02790039  RH  022%=      5-min Rain = 0
KSB1 120716Z 07003KT 28/04 A3014 RMK A01 T02790039  RH  022%=      5-min Rain = 0
KSB1 120717Z 06003KT 28/04 A3014 RMK A01 T02790039  RH  021%=      5-min Rain = 0
KSB1 120718Z 05002KT 28/04 A3014 RMK A01 T02800039  RH  021%=      5-min Rain = 0
KSB1 120719Z 06002KT 28/04 A3014 RMK A01 T02800040  RH  021%=      5-min Rain = 0
KSB1 120720Z 05002KT 28/04 A3014 RMK A01 T02800040  RH  022%=      5-min Rain = 0
KSB1 120721Z 05003KT 28/04 A3014 RMK A01 T02790040  RH  022%=      5-min Rain = 0
KSB1 120722Z 05003KT 28/04 A3014 RMK A01 T02790040  RH  022%=      5-min Rain = 0
KSB1 120723Z 04004KT 28/04 A3014 RMK A01 T02790040  RH  022%=      5-min Rain = 0
KSB1 120724Z 05004KT 28/04 A3014 RMK A01 T02780040  RH  022%=      5-min Rain = 0
KSB1 120725Z 05003KT 28/04 A3014 RMK A01 T02770040  RH  022%=      5-min Rain = 0
KSB1 120726Z 05004KT 28/04 A3014 RMK A01 T02770040  RH  022%=      5-min Rain = 0
KSB1 120727Z 05003KT 28/04 A3014 RMK A01 T02760039  RH  022%=      5-min Rain = 0
KSB1 120728Z 06003KT 28/04 A3014 RMK A01 T02750039  RH  022%=      5-min Rain = 0
KSB1 120729Z 06003KT 28/04 A3014 RMK A01 T02750039  RH  022%=      5-min Rain = 0
KSB1 120730Z 05003KT 28/04 A3014 RMK A01 T02750040  RH  022%=      5-min Rain = 0
KSB1 120731Z 05003KT 28/04 A3014 RMK A01 T02750039  RH  022%=      5-min Rain = 0
KSB1 120732Z 07003KT 28/04 A3014 RMK A01 T02750039  RH  022%=      5-min Rain = 0
KSB1 120733Z 06003KT 28/04 A3014 RMK A01 T02760039  RH  022%=      5-min Rain = 0
KSB1 120734Z 07003KT 28/04 A3014 RMK A01 T02760040  RH  022%=      5-min Rain = 0
KSB1 120735Z 07002KT 28/04 A3014 RMK A01 T02770040  RH  022%=      5-min Rain = 0
KSB1 120736Z 08002KT 28/04 A3014 RMK A01 T02780040  RH  022%=      5-min Rain = 0
KSB1 120737Z 09003KT 28/04 A3013 RMK A01 T02780040  RH  022%=      5-min Rain = 0
KSB1 120738Z 09002KT 28/04 A3013 RMK A01 T02780040  RH  022%=      5-min Rain = 0
KSB1 120739Z 08002KT 28/04 A3014 RMK A01 T02790040  RH  022%=      5-min Rain = 0
KSB1 120740Z 07002KT 28/04 A3014 RMK A01 T02800040  RH  022%=      5-min Rain = 0
KSB1 120741Z 07002KT 28/04 A3014 RMK A01 T02800040  RH  022%=      5-min Rain = 0
KSB1 120742Z 09003KT 28/04 A3014 RMK A01 T02810041  RH  021%=      5-min Rain = 0
KSB1 120743Z 10003KT 28/04 A3014 RMK A01 T02810040  RH  021%=      5-min Rain = 0
KSB1 120744Z 10003KT 28/04 A3014 RMK A01 T02810041  RH  021%=      5-min Rain = 0
KSB1 120745Z 10002KT 28/04 A3014 RMK A01 T02810041  RH  021%=      5-min Rain = 0
KSB1 120746Z 10003KT 28/04 A3014 RMK A01 T02820041  RH  021%=      5-min Rain = 0
KSB1 120747Z 10003KT 28/04 A3014 RMK A01 T02820041  RH  021%=      5-min Rain = 0
KSB1 120748Z 10003KT 28/04 A3014 RMK A01 T02820041  RH  021%=      5-min Rain = 0
KSB1 120749Z 11003KT 28/04 A3014 RMK A01 T02820041  RH  021%=      5-min Rain = 0
KSB1 120750Z 13003KT 28/04 A3013 RMK A01 T02820042  RH  022%=      5-min Rain = 0
KSB1 120751Z 13003KT 28/04 A3013 RMK A01 T02820042  RH  022%=      5-min Rain = 0
KSB1 120752Z 13003KT 28/04 A3013 RMK A01 T02820042  RH  022%=      5-min Rain = 0
KSB1 120753Z 13004KT 28/04 A3013 RMK A01 T02810043  RH  022%=      5-min Rain = 0
KSB1 120754Z 13004KT 28/04 A3013 RMK A01 T02810043  RH  022%=      5-min Rain = 0
KSB1 120755Z 15005KT 28/04 A3013 RMK A01 T02800043  RH  022%=      5-min Rain = 0
KSB1 120756Z 14005KT 28/04 A3013 RMK A01 T02790043  RH  022%=      5-min Rain = 0
KSB1 120757Z 13004KT 28/04 A3013 RMK A01 T02780043  RH  022%=      5-min Rain = 0
KSB1 120758Z 14005KT 28/04 A3013 RMK A01 T02770042  RH  022%=      5-min Rain = 0
KSB1 120759Z 13005KT 28/04 A3013 RMK A01 T02750043  RH  023%=      5-min Rain = 0
KSB1 120800Z 13005KT 28/04 A3013 RMK A01 T02750044  RH  023%=      5-min Rain = 0
KSB1 120801Z 13005KT 27/04 A3013 RMK A01 T02740043  RH  023%=      5-min Rain = 0
KSB1 120802Z 13006KT 27/04 A3013 RMK A01 T02730043  RH  023%=      5-min Rain = 0
KSB1 120803Z 13005KT 27/05 A3013 RMK A01 T02710045  RH  023%=      5-min Rain = 0
KSB1 120804Z 13005KT 27/04 A3013 RMK A01 T02700043  RH  023%=      5-min Rain = 0
KSB1 120805Z 13005KT 27/04 A3013 RMK A01 T02690043  RH  024%=      5-min Rain = 0
KSB1 120806Z 12006KT 27/05 A3013 RMK A01 T02670046  RH  024%=      5-min Rain = 0
KSB1 120807Z 13006KT 27/05 A3013 RMK A01 T02670047  RH  024%=      5-min Rain = 0
KSB1 120808Z 13006KT 27/05 A3013 RMK A01 T02670049  RH  025%=      5-min Rain = 0
KSB1 120809Z 13006KT 27/05 A3013 RMK A01 T02670049  RH  025%=      5-min Rain = 0
KSB1 120810Z 13006KT 27/05 A3013 RMK A01 T02670050  RH  025%=      5-min Rain = 0
KSB1 120811Z 13006KT 27/05 A3013 RMK A01 T02660051  RH  025%=      5-min Rain = 0
KSB1 120812Z 13006KT 27/05 A3013 RMK A01 T02660052  RH  025%=      5-min Rain = 0
KSB1 120813Z 13006KT 27/05 A3013 RMK A01 T02660052  RH  025%=      5-min Rain = 0
KSB1 120814Z 14005KT 27/05 A3013 RMK A01 T02650053  RH  026%=      5-min Rain = 0
KSB1 120815Z 13006KT 27/05 A3013 RMK A01 T02650052  RH  026%=      5-min Rain = 0
KSB1 120816Z 13006KT 26/05 A3013 RMK A01 T02640053  RH  026%=      5-min Rain = 0
KSB1 120817Z 14005KT 26/06 A3014 RMK A01 T02640055  RH  026%=      5-min Rain = 0
KSB1 120818Z 13004KT 26/06 A3014 RMK A01 T02640055  RH  026%=      5-min Rain = 0
KSB1 120819Z 13003KT 26/06 A3014 RMK A01 T02640056  RH  026%=      5-min Rain = 0
KSB1 120820Z 14002KT 26/06 A3014 RMK A01 T02630055  RH  026%=      5-min Rain = 0
KSB1 120821Z 13002KT 26/06 A3014 RMK A01 T02620055  RH  027%=      5-min Rain = 0
KSB1 120822Z 14003KT 26/06 A3014 RMK A01 T02620057  RH  027%=      5-min Rain = 0
KSB1 120823Z 13001KT 26/06 A3014 RMK A01 T02620060  RH  027%=      5-min Rain = 0
KSB1 120824Z 13002KT 26/06 A3014 RMK A01 T02610060  RH  028%=      5-min Rain = 0
KSB1 120825Z 12003KT 26/06 A3014 RMK A01 T02610061  RH  028%=      5-min Rain = 0
KSB1 120826Z 12003KT 26/06 A3014 RMK A01 T02610062  RH  028%=      5-min Rain = 0
KSB1 120827Z 12002KT 26/06 A3014 RMK A01 T02610063  RH  028%=      5-min Rain = 0
KSB1 120828Z 12002KT 26/06 A3014 RMK A01 T02610063  RH  028%=      5-min Rain = 0
KSB1 120829Z 12002KT 26/07 A3014 RMK A01 T02610065  RH  028%=      5-min Rain = 0
KSB1 120830Z 11002KT 26/07 A3014 RMK A01 T02610065  RH  029%=      5-min Rain = 0
KSB1 120831Z 11002KT 26/07 A3014 RMK A01 T02610066  RH  029%=      5-min Rain = 0
KSB1 120832Z 10002KT 26/07 A3014 RMK A01 T02610066  RH  029%=      5-min Rain = 0
KSB1 120833Z 10002KT 26/07 A3013 RMK A01 T02610068  RH  029%=      5-min Rain = 0
KSB1 120834Z 11002KT 26/07 A3013 RMK A01 T02610068  RH  029%=      5-min Rain = 0
KSB1 120835Z 10002KT 26/07 A3013 RMK A01 T02610069  RH  029%=      5-min Rain = 0
KSB1 120836Z 12002KT 26/07 A3013 RMK A01 T02620070  RH  029%=      5-min Rain = 0
KSB1 120837Z 11002KT 26/07 A3013 RMK A01 T02630072  RH  030%=      5-min Rain = 0
KSB1 120838Z 11002KT 26/07 A3013 RMK A01 T02630072  RH  030%=      5-min Rain = 0
KSB1 120839Z 11002KT 26/07 A3013 RMK A01 T02640073  RH  030%=      5-min Rain = 0
KSB1 120840Z 11002KT 27/07 A3013 RMK A01 T02650073  RH  030%=      5-min Rain = 0
KSB1 120841Z 14002KT 27/07 A3013 RMK A01 T02660073  RH  029%=      5-min Rain = 0
KSB1 120842Z 13002KT 27/07 A3013 RMK A01 T02660073  RH  029%=      5-min Rain = 0
KSB1 120843Z 11002KT 27/07 A3013 RMK A01 T02660072  RH  029%=      5-min Rain = 0
KSB1 120844Z 12002KT 27/07 A3013 RMK A01 T02650073  RH  029%=      5-min Rain = 0
KSB1 120845Z 13003KT 27/07 A3013 RMK A01 T02650073  RH  029%=      5-min Rain = 0
KSB1 120846Z 13002KT 27/07 A3013 RMK A01 T02660073  RH  029%=      5-min Rain = 0
KSB1 120847Z 12001KT 27/07 A3013 RMK A01 T02660072  RH  029%=      5-min Rain = 0
KSB1 120848Z 11000KT 27/07 A3013 RMK A01 T02650071  RH  029%=      5-min Rain = 0
KSB1 120849Z 00000KT 27/07 A3013 RMK A01 T02650072  RH  029%=      5-min Rain = 0
KSB1 120850Z 19000KT 27/07 A3013 RMK A01 T02650072  RH  029%=      5-min Rain = 0
KSB1 120851Z 23000KT 27/07 A3013 RMK A01 T02650073  RH  029%=      5-min Rain = 0
KSB1 120852Z 26002KT 27/07 A3013 RMK A01 T02650073  RH  029%=      5-min Rain = 0
KSB1 120853Z 24002KT 27/07 A3013 RMK A01 T02650072  RH  029%=      5-min Rain = 0
KSB1 120854Z 23002KT 27/07 A3013 RMK A01 T02650070  RH  029%=      5-min Rain = 0
KSB1 120855Z 24003KT 27/07 A3013 RMK A01 T02650070  RH  029%=      5-min Rain = 0
KSB1 120856Z 24003KT 27/07 A3013 RMK A01 T02650070  RH  029%=      5-min Rain = 0
KSB1 120857Z 23003KT 27/07 A3013 RMK A01 T02660069  RH  029%=      5-min Rain = 0
KSB1 120858Z 23003KT 27/07 A3013 RMK A01 T02650068  RH  029%=      5-min Rain = 0
KSB1 120859Z 22003KT 26/07 A3013 RMK A01 T02640068  RH  029%=      5-min Rain = 0
KSB1 120900Z 22003KT 26/07 A3013 RMK A01 T02610067  RH  029%=      5-min Rain = 0
KSB1 120901Z 22003KT 26/07 A3013 RMK A01 T02600068  RH  029%=      5-min Rain = 0
KSB1 120902Z 21003KT 26/07 A3013 RMK A01 T02580067  RH  030%=      5-min Rain = 0
KSB1 120903Z 21003KT 26/07 A3013 RMK A01 T02560068  RH  030%=      5-min Rain = 0
KSB1 120904Z 20002KT 26/07 A3013 RMK A01 T02550069  RH  030%=      5-min Rain = 0
KSB1 120905Z 19002KT 26/07 A3013 RMK A01 T02550069  RH  030%=      5-min Rain = 0
KSB1 120906Z 19002KT 25/07 A3013 RMK A01 T02540070  RH  031%=      5-min Rain = 0
KSB1 120907Z 19002KT 26/07 A3014 RMK A01 T02550071  RH  031%=      5-min Rain = 0
KSB1 120908Z 19002KT 26/07 A3013 RMK A01 T02560070  RH  031%=      5-min Rain = 0
KSB1 120909Z 19002KT 26/07 A3014 RMK A01 T02560070  RH  031%=      5-min Rain = 0
KSB1 120910Z 16002KT 26/07 A3014 RMK A01 T02560071  RH  031%=      5-min Rain = 0
KSB1 120911Z 15001KT 26/07 A3014 RMK A01 T02570072  RH  031%=      5-min Rain = 0
KSB1 120912Z 14002KT 26/07 A3014 RMK A01 T02580073  RH  031%=      5-min Rain = 0
KSB1 120913Z 14002KT 26/07 A3014 RMK A01 T02580072  RH  031%=      5-min Rain = 0
KSB1 120914Z 12001KT 26/07 A3014 RMK A01 T02580072  RH  031%=      5-min Rain = 0
KSB1 120915Z 14002KT 26/07 A3014 RMK A01 T02590072  RH  031%=      5-min Rain = 0
KSB1 120916Z 12001KT 26/07 A3014 RMK A01 T02580071  RH  030%=      5-min Rain = 0
KSB1 120917Z 09001KT 26/07 A3013 RMK A01 T02570072  RH  031%=      5-min Rain = 0
KSB1 120918Z 00000KT 26/07 A3013 RMK A01 T02560072  RH  031%=      5-min Rain = 0
KSB1 120919Z 00000KT 26/07 A3013 RMK A01 T02560072  RH  031%=      5-min Rain = 0
KSB1 120920Z 12001KT 26/07 A3013 RMK A01 T02570073  RH  031%=      5-min Rain = 0
KSB1 120921Z 12000KT 26/07 A3014 RMK A01 T02560072  RH  031%=      5-min Rain = 0
KSB1 120922Z 16001KT 26/07 A3014 RMK A01 T02570073  RH  031%=      5-min Rain = 0
KSB1 120923Z 14001KT 26/07 A3014 RMK A01 T02570073  RH  031%=      5-min Rain = 0
KSB1 120924Z 16002KT 26/08 A3014 RMK A01 T02590075  RH  031%=      5-min Rain = 0
KSB1 120925Z 18001KT 26/07 A3014 RMK A01 T02600073  RH  031%=      5-min Rain = 0
KSB1 120926Z 16001KT 26/08 A3014 RMK A01 T02590075  RH  031%=      5-min Rain = 0
KSB1 120927Z 23001KT 26/08 A3014 RMK A01 T02610078  RH  031%=      5-min Rain = 0
KSB1 120928Z 21001KT 26/08 A3014 RMK A01 T02620076  RH  031%=      5-min Rain = 0
KSB1 120929Z 20002KT 26/08 A3014 RMK A01 T02620076  RH  031%=      5-min Rain = 0
KSB1 120930Z 20001KT 26/08 A3014 RMK A01 T02620077  RH  031%=      5-min Rain = 0
KSB1 120931Z 14001KT 26/08 A3014 RMK A01 T02620078  RH  031%=      5-min Rain = 0
KSB1 120932Z 12001KT 26/08 A3014 RMK A01 T02620080  RH  032%=      5-min Rain = 0
KSB1 120933Z 15002KT 26/08 A3014 RMK A01 T02620082  RH  032%=      5-min Rain = 0
KSB1 120934Z 17002KT 26/08 A3014 RMK A01 T02620081  RH  032%=      5-min Rain = 0
KSB1 120935Z 16002KT 26/08 A3014 RMK A01 T02630081  RH  032%=      5-min Rain = 0
KSB1 120936Z 14002KT 26/08 A3014 RMK A01 T02640081  RH  031%=      5-min Rain = 0
KSB1 120937Z 16002KT 27/08 A3014 RMK A01 T02650081  RH  031%=      5-min Rain = 0
KSB1 120938Z 15002KT 26/08 A3014 RMK A01 T02640081  RH  031%=      5-min Rain = 0
KSB1 120939Z 15003KT 26/08 A3014 RMK A01 T02640081  RH  031%=      5-min Rain = 0
KSB1 120940Z 15002KT 26/08 A3014 RMK A01 T02640081  RH  031%=      5-min Rain = 0
KSB1 120941Z 15002KT 26/08 A3014 RMK A01 T02620080  RH  031%=      5-min Rain = 0
KSB1 120942Z 14003KT 26/08 A3014 RMK A01 T02610080  RH  032%=      5-min Rain = 0
KSB1 120943Z 14002KT 26/08 A3014 RMK A01 T02600079  RH  032%=      5-min Rain = 0
KSB1 120944Z 15002KT 26/08 A3014 RMK A01 T02590079  RH  032%=      5-min Rain = 0
KSB1 120945Z 16002KT 26/08 A3014 RMK A01 T02590080  RH  032%=      5-min Rain = 0
KSB1 120946Z 15002KT 26/08 A3014 RMK A01 T02580080  RH  032%=      5-min Rain = 0
KSB1 120947Z 15002KT 26/08 A3014 RMK A01 T02590081  RH  032%=      5-min Rain = 0
KSB1 120948Z 14002KT 26/08 A3014 RMK A01 T02590081  RH  032%=      5-min Rain = 0
KSB1 120949Z 14002KT 26/08 A3014 RMK A01 T02590081  RH  032%=      5-min Rain = 0
KSB1 120950Z 15002KT 26/08 A3014 RMK A01 T02600082  RH  032%=      5-min Rain = 0
KSB1 120951Z 15002KT 26/08 A3014 RMK A01 T02600081  RH  032%=      5-min Rain = 0
KSB1 120952Z 16002KT 26/08 A3014 RMK A01 T02600081  RH  032%=      5-min Rain = 0
KSB1 120953Z 16002KT 26/08 A3014 RMK A01 T02610082  RH  032%=      5-min Rain = 0
KSB1 120954Z 17002KT 26/08 A3014 RMK A01 T02610081  RH  032%=      5-min Rain = 0
KSB1 120955Z 16002KT 26/08 A3014 RMK A01 T02610081  RH  032%=      5-min Rain = 0
KSB1 120956Z 17002KT 26/08 A3014 RMK A01 T02610081  RH  032%=      5-min Rain = 0
KSB1 120957Z 18002KT 26/08 A3014 RMK A01 T02610081  RH  032%=      5-min Rain = 0
KSB1 120958Z 18001KT 26/08 A3014 RMK A01 T02600080  RH  032%=      5-min Rain = 0
KSB1 120959Z 18001KT 26/08 A3014 RMK A01 T02590080  RH  032%=      5-min Rain = 0
KSB1 121000Z 19001KT 26/08 A3014 RMK A01 T02580080  RH  032%=      5-min Rain = 0
KSB1 121001Z 19001KT 26/08 A3014 RMK A01 T02570080  RH  032%=      5-min Rain = 0
KSB1 121002Z 20000KT 26/08 A3014 RMK A01 T02570080  RH  033%=      5-min Rain = 0
KSB1 121003Z 15000KT 26/08 A3014 RMK A01 T02560080  RH  033%=      5-min Rain = 0
KSB1 121004Z 13001KT 26/08 A3014 RMK A01 T02560081  RH  033%=      5-min Rain = 0
KSB1 121005Z 12001KT 26/08 A3014 RMK A01 T02560081  RH  033%=      5-min Rain = 0
KSB1 121006Z 12002KT 26/08 A3014 RMK A01 T02560081  RH  033%=      5-min Rain = 0
KSB1 121007Z 12001KT 26/08 A3014 RMK A01 T02560081  RH  033%=      5-min Rain = 0
KSB1 121008Z 10001KT 26/08 A3014 RMK A01 T02560081  RH  033%=      5-min Rain = 0
KSB1 121009Z 08001KT 26/08 A3014 RMK A01 T02570082  RH  033%=      5-min Rain = 0
KSB1 121010Z 10001KT 26/08 A3014 RMK A01 T02600082  RH  032%=      5-min Rain = 0
KSB1 121011Z 08002KT 26/08 A3014 RMK A01 T02620082  RH  032%=      5-min Rain = 0
KSB1 121012Z 06002KT 26/08 A3014 RMK A01 T02630082  RH  032%=      5-min Rain = 0
KSB1 121013Z 04002KT 26/08 A3014 RMK A01 T02630082  RH  032%=      5-min Rain = 0
KSB1 121014Z 02003KT 26/08 A3014 RMK A01 T02620079  RH  031%=      5-min Rain = 0
KSB1 121015Z 01004KT 26/08 A3014 RMK A01 T02560077  RH  032%=      5-min Rain = 0
KSB1 121016Z 01004KT 25/08 A3014 RMK A01 T02520077  RH  033%=      5-min Rain = 0
KSB1 121017Z 01004KT 25/08 A3014 RMK A01 T02500077  RH  033%=      5-min Rain = 0
KSB1 121018Z 00005KT 25/08 A3014 RMK A01 T02480077  RH  034%=      5-min Rain = 0
KSB1 121019Z 00004KT 25/08 A3014 RMK A01 T02480077  RH  034%=      5-min Rain = 0
KSB1 121020Z 35005KT 25/08 A3014 RMK A01 T02490078  RH  034%=      5-min Rain = 0
KSB1 121021Z 35004KT 25/08 A3014 RMK A01 T02500079  RH  033%=      5-min Rain = 0
KSB1 121022Z 36004KT 25/08 A3014 RMK A01 T02520079  RH  033%=      5-min Rain = 0
KSB1 121023Z 00004KT 25/08 A3014 RMK A01 T02530079  RH  033%=      5-min Rain = 0
KSB1 121024Z 00004KT 25/08 A3014 RMK A01 T02520079  RH  033%=      5-min Rain = 0
KSB1 121025Z 01004KT 25/08 A3014 RMK A01 T02530080  RH  033%=      5-min Rain = 0
KSB1 121026Z 02004KT 25/08 A3014 RMK A01 T02540080  RH  033%=      5-min Rain = 0
KSB1 121027Z 01004KT 26/08 A3014 RMK A01 T02560080  RH  033%=      5-min Rain = 0
KSB1 121028Z 36003KT 26/08 A3014 RMK A01 T02570080  RH  032%=      5-min Rain = 0
KSB1 121029Z 35003KT 26/08 A3014 RMK A01 T02570080  RH  032%=      5-min Rain = 0
KSB1 121030Z 00004KT 26/08 A3014 RMK A01 T02570080  RH  032%=      5-min Rain = 0
KSB1 121031Z 35003KT 26/08 A3014 RMK A01 T02560080  RH  033%=      5-min Rain = 0
KSB1 121032Z 35003KT 26/08 A3014 RMK A01 T02560080  RH  033%=      5-min Rain = 0
KSB1 121033Z 00003KT 26/08 A3014 RMK A01 T02560079  RH  032%=      5-min Rain = 0
KSB1 121034Z 36002KT 26/08 A3014 RMK A01 T02560079  RH  032%=      5-min Rain = 0
KSB1 121035Z 35002KT 26/08 A3014 RMK A01 T02560079  RH  033%=      5-min Rain = 0
KSB1 121036Z 34002KT 26/08 A3014 RMK A01 T02560079  RH  033%=      5-min Rain = 0
KSB1 121037Z 32002KT 26/08 A3014 RMK A01 T02560079  RH  033%=      5-min Rain = 0
KSB1 121038Z 33001KT 26/08 A3014 RMK A01 T02560079  RH  032%=      5-min Rain = 0
KSB1 121039Z 33001KT 25/08 A3014 RMK A01 T02540078  RH  033%=      5-min Rain = 0
KSB1 121040Z 33001KT 25/08 A3014 RMK A01 T02520080  RH  033%=      5-min Rain = 0
KSB1 121041Z 32001KT 26/08 A3014 RMK A01 T02550081  RH  033%=      5-min Rain = 0
KSB1 121042Z 29001KT 26/08 A3014 RMK A01 T02570081  RH  033%=      5-min Rain = 0
KSB1 121043Z 28002KT 26/08 A3014 RMK A01 T02590081  RH  032%=      5-min Rain = 0
KSB1 121044Z 28001KT 26/08 A3014 RMK A01 T02590081  RH  032%=      5-min Rain = 0
KSB1 121045Z 27001KT 26/08 A3014 RMK A01 T02590081  RH  032%=      5-min Rain = 0
KSB1 121046Z 31001KT 26/08 A3014 RMK A01 T02590081  RH  032%=      5-min Rain = 0
KSB1 121047Z 31000KT 26/08 A3014 RMK A01 T02610082  RH  032%=      5-min Rain = 0
KSB1 121048Z 00000KT 26/08 A3014 RMK A01 T02630083  RH  032%=      5-min Rain = 0
KSB1 121049Z 00000KT 26/08 A3015 RMK A01 T02630082  RH  032%=      5-min Rain = 0
KSB1 121050Z 00000KT 26/08 A3015 RMK A01 T02640082  RH  032%=      5-min Rain = 0
KSB1 121051Z 00000KT 26/08 A3015 RMK A01 T02640082  RH  032%=      5-min Rain = 0
KSB1 121052Z 00000KT 26/08 A3015 RMK A01 T02640081  RH  031%=      5-min Rain = 0
KSB1 121053Z 00000KT 26/08 A3015 RMK A01 T02610080  RH  032%=      5-min Rain = 0
KSB1 121054Z 00000KT 26/08 A3015 RMK A01 T02600081  RH  032%=      5-min Rain = 0
KSB1 121055Z 00000KT 26/08 A3015 RMK A01 T02600081  RH  032%=      5-min Rain = 0
KSB1 121056Z 00000KT 26/08 A3015 RMK A01 T02600081  RH  032%=      5-min Rain = 0
KSB1 121057Z 00000KT 26/08 A3015 RMK A01 T02590081  RH  032%=      5-min Rain = 0
KSB1 121058Z 00000KT 26/08 A3015 RMK A01 T02580080  RH  032%=      5-min Rain = 0
KSB1 121059Z 00000KT 26/08 A3015 RMK A01 T02580081  RH  033%=      5-min Rain = 0
KSB1 121100Z 00000KT 26/08 A3015 RMK A01 T02580081  RH  033%=      5-min Rain = 0
KSB1 121101Z 00000KT 26/08 A3015 RMK A01 T02570081  RH  033%=      5-min Rain = 0
KSB1 121102Z 00000KT 26/08 A3015 RMK A01 T02580082  RH  033%=      5-min Rain = 0
KSB1 121103Z 00000KT 26/08 A3015 RMK A01 T02570082  RH  033%=      5-min Rain = 0
KSB1 121104Z 00000KT 26/08 A3015 RMK A01 T02570081  RH  033%=      5-min Rain = 0
KSB1 121105Z 00000KT 26/08 A3015 RMK A01 T02570082  RH  033%=      5-min Rain = 0
KSB1 121106Z 03000KT 26/08 A3015 RMK A01 T02570082  RH  033%=      5-min Rain = 0
KSB1 121107Z 03001KT 26/08 A3015 RMK A01 T02570081  RH  033%=      5-min Rain = 0
KSB1 121108Z 01001KT 26/08 A3015 RMK A01 T02560081  RH  033%=      5-min Rain = 0
KSB1 121109Z 00001KT 26/08 A3015 RMK A01 T02570081  RH  033%=      5-min Rain = 0
KSB1 121110Z 00001KT 26/08 A3015 RMK A01 T02570081  RH  033%=      5-min Rain = 0
KSB1 121111Z 35001KT 26/08 A3015 RMK A01 T02580081  RH  033%=      5-min Rain = 0
KSB1 121112Z 35001KT 26/08 A3015 RMK A01 T02590082  RH  032%=      5-min Rain = 0
KSB1 121113Z 35001KT 26/08 A3015 RMK A01 T02610082  RH  032%=      5-min Rain = 0
KSB1 121114Z 34002KT 26/08 A3015 RMK A01 T02620082  RH  032%=      5-min Rain = 0
KSB1 121115Z 33001KT 26/08 A3015 RMK A01 T02630082  RH  032%=      5-min Rain = 0
KSB1 121116Z 35001KT 26/08 A3015 RMK A01 T02630082  RH  032%=      5-min Rain = 0
KSB1 121117Z 34000KT 26/08 A3015 RMK A01 T02630082  RH  032%=      5-min Rain = 0
KSB1 121118Z 00000KT 26/08 A3015 RMK A01 T02630083  RH  032%=      5-min Rain = 0
KSB1 121119Z 00000KT 26/08 A3016 RMK A01 T02630083  RH  032%=      5-min Rain = 0
KSB1 121120Z 35000KT 26/08 A3016 RMK A01 T02630083  RH  032%=      5-min Rain = 0
KSB1 121121Z 35000KT 26/08 A3016 RMK A01 T02620082  RH  032%=      5-min Rain = 0
KSB1 121122Z 34000KT 26/08 A3015 RMK A01 T02630083  RH  032%=      5-min Rain = 0
KSB1 121123Z 34000KT 26/08 A3015 RMK A01 T02640083  RH  032%=      5-min Rain = 0
KSB1 121124Z 00000KT 26/08 A3015 RMK A01 T02640083  RH  032%=      5-min Rain = 0
KSB1 121125Z 00000KT 26/08 A3015 RMK A01 T02640083  RH  032%=      5-min Rain = 0
KSB1 121126Z 00000KT 26/08 A3015 RMK A01 T02640083  RH  032%=      5-min Rain = 0
KSB1 121127Z 00000KT 27/08 A3015 RMK A01 T02650083  RH  032%=      5-min Rain = 0
KSB1 121128Z 26000KT 27/08 A3016 RMK A01 T02650083  RH  032%=      5-min Rain = 0
KSB1 121129Z 26001KT 27/08 A3016 RMK A01 T02650083  RH  032%=      5-min Rain = 0
KSB1 121130Z 26001KT 27/08 A3016 RMK A01 T02650083  RH  032%=      5-min Rain = 0
KSB1 121131Z 26000KT 26/08 A3016 RMK A01 T02640083  RH  032%=      5-min Rain = 0
KSB1 121132Z 00000KT 26/08 A3016 RMK A01 T02640083  RH  032%=      5-min Rain = 0
KSB1 121133Z 00000KT 26/08 A3016 RMK A01 T02640083  RH  032%=      5-min Rain = 0
KSB1 121134Z 00000KT 26/08 A3016 RMK A01 T02640083  RH  032%=      5-min Rain = 0
KSB1 121135Z 00000KT 26/08 A3016 RMK A01 T02640083  RH  032%=      5-min Rain = 0
KSB1 121136Z 00000KT 26/08 A3016 RMK A01 T02640083  RH  032%=      5-min Rain = 0
KSB1 121137Z 00000KT 26/08 A3016 RMK A01 T02640083  RH  032%=      5-min Rain = 0
KSB1 121138Z 00000KT 26/08 A3016 RMK A01 T02640083  RH  032%=      5-min Rain = 0
KSB1 121139Z 00000KT 26/08 A3016 RMK A01 T02640084  RH  032%=      5-min Rain = 0
KSB1 121140Z 00000KT 26/08 A3016 RMK A01 T02630083  RH  032%=      5-min Rain = 0
KSB1 121141Z 00000KT 26/08 A3016 RMK A01 T02630083  RH  032%=      5-min Rain = 0
KSB1 121142Z 00000KT 26/08 A3016 RMK A01 T02630083  RH  032%=      5-min Rain = 0
KSB1 121143Z 00000KT 26/08 A3016 RMK A01 T02620083  RH  032%=      5-min Rain = 0
KSB1 121144Z 00000KT 26/08 A3016 RMK A01 T02620084  RH  032%=      5-min Rain = 0
KSB1 121145Z 26001KT 26/08 A3016 RMK A01 T02620083  RH  032%=      5-min Rain = 0
KSB1 121146Z 26001KT 26/08 A3016 RMK A01 T02610083  RH  032%=      5-min Rain = 0
KSB1 121147Z 27001KT 26/08 A3016 RMK A01 T02600083  RH  033%=      5-min Rain = 0
KSB1 121148Z 28002KT 26/08 A3016 RMK A01 T02590083  RH  033%=      5-min Rain = 0
KSB1 121149Z 28002KT 26/08 A3016 RMK A01 T02590083  RH  033%=      5-min Rain = 0
KSB1 121150Z 28002KT 26/08 A3016 RMK A01 T02590083  RH  033%=      5-min Rain = 0
KSB1 121151Z 27002KT 26/08 A3016 RMK A01 T02570083  RH  033%=      5-min Rain = 0
KSB1 121152Z 25002KT 26/08 A3016 RMK A01 T02570083  RH  033%=      5-min Rain = 0
KSB1 121153Z 26002KT 26/08 A3016 RMK A01 T02560083  RH  033%=      5-min Rain = 0
KSB1 121154Z 26001KT 26/08 A3016 RMK A01 T02560084  RH  034%=      5-min Rain = 0
KSB1 121155Z 27001KT 26/08 A3016 RMK A01 T02560084  RH  034%=      5-min Rain = 0
KSB1 121156Z 27001KT 26/08 A3016 RMK A01 T02560084  RH  034%=      5-min Rain = 0
KSB1 121157Z 28001KT 26/08 A3016 RMK A01 T02560084  RH  034%=      5-min Rain = 0
KSB1 121158Z 26001KT 26/08 A3016 RMK A01 T02550083  RH  034%=      5-min Rain = 0
KSB1 121159Z 24001KT 26/08 A3016 RMK A01 T02550083  RH  034%=      5-min Rain = 0
KSB1 121200Z 27001KT 26/08 A3016 RMK A01 T02550084  RH  034%=      5-min Rain = 0
KSB1 121201Z 26001KT 26/08 A3016 RMK A01 T02550083  RH  034%=      5-min Rain = 0
KSB1 121202Z 26001KT 26/08 A3016 RMK A01 T02550083  RH  034%=      5-min Rain = 0
KSB1 121203Z 25001KT 26/08 A3016 RMK A01 T02560084  RH  033%=      5-min Rain = 0
KSB1 121204Z 26001KT 26/08 A3016 RMK A01 T02570084  RH  033%=      5-min Rain = 0
KSB1 121205Z 27001KT 26/08 A3016 RMK A01 T02580084  RH  033%=      5-min Rain = 0
KSB1 121206Z 28001KT 26/08 A3016 RMK A01 T02580083  RH  033%=      5-min Rain = 0
KSB1 121207Z 28002KT 26/08 A3016 RMK A01 T02580083  RH  033%=      5-min Rain = 0
KSB1 121208Z 27001KT 26/08 A3016 RMK A01 T02570083  RH  033%=      5-min Rain = 0
KSB1 121209Z 26002KT 26/08 A3016 RMK A01 T02570083  RH  033%=      5-min Rain = 0
KSB1 121210Z 26002KT 26/08 A3016 RMK A01 T02580084  RH  033%=      5-min Rain = 0
KSB1 121211Z 26002KT 26/08 A3016 RMK A01 T02590083  RH  033%=      5-min Rain = 0
KSB1 121212Z 26002KT 26/08 A3016 RMK A01 T02590083  RH  033%=      5-min Rain = 0
KSB1 121213Z 26003KT 26/08 A3016 RMK A01 T02600083  RH  033%=      5-min Rain = 0
KSB1 121214Z 26003KT 26/08 A3016 RMK A01 T02600083  RH  033%=      5-min Rain = 0
KSB1 121215Z 25003KT 26/08 A3016 RMK A01 T02590082  RH  033%=      5-min Rain = 0
KSB1 121216Z 25004KT 26/08 A3016 RMK A01 T02590081  RH  032%=      5-min Rain = 0
KSB1 121217Z 26004KT 26/08 A3016 RMK A01 T02580081  RH  032%=      5-min Rain = 0
KSB1 121218Z 25004KT 26/08 A3016 RMK A01 T02570080  RH  032%=      5-min Rain = 0
KSB1 121219Z 25004KT 26/08 A3016 RMK A01 T02560080  RH  033%=      5-min Rain = 0
KSB1 121220Z 24004KT 25/08 A3016 RMK A01 T02540079  RH  033%=      5-min Rain = 0
KSB1 121221Z 24004KT 25/08 A3016 RMK A01 T02530079  RH  033%=      5-min Rain = 0
KSB1 121222Z 25004KT 25/08 A3016 RMK A01 T02530079  RH  033%=      5-min Rain = 0
KSB1 121223Z 25004KT 25/08 A3016 RMK A01 T02530079  RH  033%=      5-min Rain = 0
KSB1 121224Z 24004KT 25/08 A3016 RMK A01 T02540079  RH  033%=      5-min Rain = 0
KSB1 121225Z 25004KT 25/08 A3016 RMK A01 T02540079  RH  033%=      5-min Rain = 0
KSB1 121226Z 25004KT 25/08 A3016 RMK A01 T02540079  RH  033%=      5-min Rain = 0
KSB1 121227Z 24005KT 25/08 A3016 RMK A01 T02540079  RH  033%=      5-min Rain = 0
KSB1 121228Z 24005KT 25/08 A3016 RMK A01 T02540079  RH  033%=      5-min Rain = 0
KSB1 121229Z 23004KT 25/08 A3016 RMK A01 T02540079  RH  033%=      5-min Rain = 0
KSB1 121230Z 24004KT 25/08 A3016 RMK A01 T02540079  RH  033%=      5-min Rain = 0
KSB1 121231Z 24005KT 25/08 A3016 RMK A01 T02540079  RH  033%=      5-min Rain = 0
KSB1 121232Z 24005KT 26/08 A3016 RMK A01 T02550079  RH  033%=      5-min Rain = 0
KSB1 121233Z 24005KT 26/08 A3016 RMK A01 T02550079  RH  033%=      5-min Rain = 0
KSB1 121234Z 24005KT 26/08 A3016 RMK A01 T02550078  RH  033%=      5-min Rain = 0
KSB1 121235Z 24005KT 26/08 A3016 RMK A01 T02550079  RH  033%=      5-min Rain = 0
KSB1 121236Z 24005KT 26/08 A3016 RMK A01 T02550079  RH  033%=      5-min Rain = 0
KSB1 121237Z 24004KT 26/08 A3016 RMK A01 T02560079  RH  033%=      5-min Rain = 0
KSB1 121238Z 24004KT 26/08 A3016 RMK A01 T02560079  RH  032%=      5-min Rain = 0
KSB1 121239Z 23004KT 26/08 A3016 RMK A01 T02560079  RH  032%=      5-min Rain = 0
KSB1 121240Z 24004KT 26/08 A3016 RMK A01 T02570079  RH  032%=      5-min Rain = 0
KSB1 121241Z 25004KT 26/08 A3016 RMK A01 T02580079  RH  032%=      5-min Rain = 0
KSB1 121242Z 25004KT 26/08 A3016 RMK A01 T02580079  RH  032%=      5-min Rain = 0
KSB1 121243Z 25004KT 26/08 A3016 RMK A01 T02590079  RH  032%=      5-min Rain = 0
KSB1 121244Z 25004KT 26/08 A3016 RMK A01 T02600079  RH  032%=      5-min Rain = 0
KSB1 121245Z 25004KT 26/08 A3016 RMK A01 T02610079  RH  032%=      5-min Rain = 0
KSB1 121246Z 25004KT 26/08 A3016 RMK A01 T02620079  RH  031%=      5-min Rain = 0
KSB1 121247Z 26005KT 26/08 A3016 RMK A01 T02620079  RH  031%=      5-min Rain = 0
KSB1 121248Z 26005KT 26/08 A3016 RMK A01 T02620079  RH  031%=      5-min Rain = 0
KSB1 121249Z 26005KT 26/08 A3016 RMK A01 T02620079  RH  031%=      5-min Rain = 0
KSB1 121250Z 26005KT 26/08 A3016 RMK A01 T02630079  RH  031%=      5-min Rain = 0
KSB1 121251Z 26005KT 26/08 A3016 RMK A01 T02630079  RH  031%=      5-min Rain = 0
KSB1 121252Z 25004KT 26/08 A3017 RMK A01 T02630079  RH  031%=      5-min Rain = 0
KSB1 121253Z 24004KT 26/08 A3017 RMK A01 T02640079  RH  031%=      5-min Rain = 0
KSB1 121254Z 24004KT 26/08 A3017 RMK A01 T02640079  RH  031%=      5-min Rain = 0
KSB1 121255Z 25004KT 26/08 A3016 RMK A01 T02640079  RH  031%=      5-min Rain = 0
KSB1 121256Z 25004KT 26/08 A3016 RMK A01 T02640079  RH  031%=      5-min Rain = 0
KSB1 121257Z 25004KT 26/08 A3016 RMK A01 T02640079  RH  031%=      5-min Rain = 0
KSB1 121258Z 25004KT 27/08 A3016 RMK A01 T02650079  RH  031%=      5-min Rain = 0
KSB1 121259Z 25004KT 27/08 A3016 RMK A01 T02650080  RH  031%=      5-min Rain = 0
KSB1 121300Z 25004KT 27/08 A3016 RMK A01 T02660080  RH  031%=      5-min Rain = 0
KSB1 121301Z 24004KT 27/08 A3016 RMK A01 T02670080  RH  031%=      5-min Rain = 0
KSB1 121302Z 24004KT 27/08 A3016 RMK A01 T02680080  RH  031%=      5-min Rain = 0
KSB1 121303Z 24003KT 27/08 A3016 RMK A01 T02680081  RH  031%=      5-min Rain = 0
KSB1 121304Z 23003KT 27/08 A3016 RMK A01 T02690081  RH  031%=      5-min Rain = 0
KSB1 121305Z 23003KT 27/08 A3016 RMK A01 T02690081  RH  030%=      5-min Rain = 0
KSB1 121306Z 23003KT 27/08 A3016 RMK A01 T02690081  RH  030%=      5-min Rain = 0
KSB1 121307Z 24003KT 27/08 A3016 RMK A01 T02700081  RH  030%=      5-min Rain = 0
KSB1 121308Z 24003KT 27/08 A3016 RMK A01 T02710081  RH  030%=      5-min Rain = 0
KSB1 121309Z 24002KT 27/08 A3016 RMK A01 T02720082  RH  030%=      5-min Rain = 0
KSB1 121310Z 23002KT 27/08 A3016 RMK A01 T02730082  RH  030%=      5-min Rain = 0
KSB1 121311Z 22001KT 27/08 A3016 RMK A01 T02730081  RH  030%=      5-min Rain = 0
KSB1 121312Z 18000KT 27/08 A3016 RMK A01 T02710079  RH  030%=      5-min Rain = 0
KSB1 121313Z 18002KT 27/08 A3016 RMK A01 T02680079  RH  030%=      5-min Rain = 0
KSB1 121314Z 19001KT 27/08 A3016 RMK A01 T02670080  RH  030%=      5-min Rain = 0
KSB1 121315Z 14001KT 27/08 A3016 RMK A01 T02690080  RH  030%=      5-min Rain = 0
KSB1 121316Z 16001KT 27/08 A3016 RMK A01 T02680079  RH  030%=      5-min Rain = 0
KSB1 121317Z 16001KT 27/08 A3016 RMK A01 T02650078  RH  031%=      5-min Rain = 0
KSB1 121318Z 15001KT 26/08 A3016 RMK A01 T02630078  RH  031%=      5-min Rain = 0
KSB1 121319Z 15001KT 26/08 A3016 RMK A01 T02610078  RH  031%=      5-min Rain = 0
KSB1 121320Z 18001KT 26/08 A3016 RMK A01 T02610078  RH  031%=      5-min Rain = 0
KSB1 121321Z 19001KT 26/08 A3016 RMK A01 T02610078  RH  031%=      5-min Rain = 0
KSB1 121322Z 20001KT 26/08 A3016 RMK A01 T02620079  RH  031%=      5-min Rain = 0
KSB1 121323Z 19001KT 26/08 A3017 RMK A01 T02630079  RH  031%=      5-min Rain = 0
KSB1 121324Z 19001KT 26/08 A3017 RMK A01 T02630079  RH  031%=      5-min Rain = 0
KSB1 121325Z 19001KT 26/08 A3017 RMK A01 T02640079  RH  031%=      5-min Rain = 0
KSB1 121326Z 18001KT 27/08 A3017 RMK A01 T02650079  RH  031%=      5-min Rain = 0
KSB1 121327Z 16001KT 27/08 A3017 RMK A01 T02650079  RH  031%=      5-min Rain = 0
KSB1 121328Z 14001KT 27/08 A3017 RMK A01 T02660080  RH  031%=      5-min Rain = 0
KSB1 121329Z 13001KT 27/08 A3017 RMK A01 T02660080  RH  031%=      5-min Rain = 0
KSB1 121330Z 11002KT 27/08 A3017 RMK A01 T02650080  RH  031%=      5-min Rain = 0
KSB1 121331Z 10002KT 27/08 A3017 RMK A01 T02650081  RH  031%=      5-min Rain = 0
KSB1 121332Z 13002KT 26/08 A3017 RMK A01 T02640081  RH  031%=      5-min Rain = 0
KSB1 121333Z 10003KT 26/08 A3017 RMK A01 T02640081  RH  031%=      5-min Rain = 0
KSB1 121334Z 10003KT 26/08 A3017 RMK A01 T02630081  RH  031%=      5-min Rain = 0
KSB1 121335Z 09004KT 26/08 A3018 RMK A01 T02640081  RH  031%=      5-min Rain = 0
KSB1 121336Z 09004KT 26/08 A3018 RMK A01 T02640082  RH  032%=      5-min Rain = 0
KSB1 121337Z 09004KT 26/08 A3018 RMK A01 T02620082  RH  032%=      5-min Rain = 0
KSB1 121338Z 08005KT 26/08 A3018 RMK A01 T02590083  RH  033%=      5-min Rain = 0
KSB1 121339Z 08004KT 26/08 A3018 RMK A01 T02570083  RH  033%=      5-min Rain = 0
KSB1 121340Z 08005KT 26/08 A3018 RMK A01 T02550084  RH  034%=      5-min Rain = 0
KSB1 121341Z 07004KT 25/08 A3018 RMK A01 T02540084  RH  034%=      5-min Rain = 0
KSB1 121342Z 06004KT 25/08 A3018 RMK A01 T02530084  RH  034%=      5-min Rain = 0
KSB1 121343Z 07004KT 25/08 A3018 RMK A01 T02520083  RH  034%=      5-min Rain = 0
KSB1 121344Z 05004KT 25/08 A3018 RMK A01 T02520083  RH  034%=      5-min Rain = 0
KSB1 121345Z 05004KT 25/08 A3018 RMK A01 T02520083  RH  034%=      5-min Rain = 0
KSB1 121346Z 05005KT 25/08 A3018 RMK A01 T02530083  RH  034%=      5-min Rain = 0
KSB1 121347Z 05004KT 25/08 A3018 RMK A01 T02520083  RH  034%=      5-min Rain = 0
KSB1 121348Z 05004KT 25/08 A3018 RMK A01 T02520083  RH  034%=      5-min Rain = 0
KSB1 121349Z 05004KT 25/08 A3018 RMK A01 T02520083  RH  034%=      5-min Rain = 0
KSB1 121350Z 05004KT 25/08 A3018 RMK A01 T02510083  RH  034%=      5-min Rain = 0
KSB1 121351Z 06004KT 25/08 A3018 RMK A01 T02510084  RH  034%=      5-min Rain = 0
KSB1 121352Z 06003KT 25/08 A3018 RMK A01 T02520084  RH  034%=      5-min Rain = 0
KSB1 121353Z 05003KT 25/08 A3018 RMK A01 T02540084  RH  034%=      5-min Rain = 0
KSB1 121354Z 04003KT 26/08 A3018 RMK A01 T02550084  RH  034%=      5-min Rain = 0
KSB1 121355Z 04003KT 25/08 A3018 RMK A01 T02540084  RH  034%=      5-min Rain = 0
KSB1 121356Z 03003KT 25/09 A3018 RMK A01 T02540085  RH  034%=      5-min Rain = 0
KSB1 121357Z 05002KT 25/09 A3018 RMK A01 T02540085  RH  034%=      5-min Rain = 0
KSB1 121358Z 04002KT 25/09 A3018 RMK A01 T02540085  RH  034%=      5-min Rain = 0
KSB1 121359Z 05002KT 25/09 A3018 RMK A01 T02540085  RH  034%=      5-min Rain = 0
KSB1 121400Z 04003KT 26/09 A3018 RMK A01 T02550085  RH  034%=      5-min Rain = 0
KSB1 121401Z 05003KT 26/09 A3019 RMK A01 T02550085  RH  034%=      5-min Rain = 0
KSB1 121402Z 05003KT 26/09 A3019 RMK A01 T02550085  RH  034%=      5-min Rain = 0
KSB1 121403Z 05003KT 26/09 A3019 RMK A01 T02560086  RH  034%=      5-min Rain = 0
KSB1 121404Z 04003KT 26/09 A3019 RMK A01 T02570085  RH  034%=      5-min Rain = 0
KSB1 121405Z 04003KT 26/09 A3019 RMK A01 T02570085  RH  034%=      5-min Rain = 0
KSB1 121406Z 04003KT 26/09 A3019 RMK A01 T02580085  RH  034%=      5-min Rain = 0
KSB1 121407Z 04003KT 26/09 A3019 RMK A01 T02590085  RH  033%=      5-min Rain = 0
KSB1 121408Z 04003KT 26/09 A3019 RMK A01 T02610086  RH  033%=      5-min Rain = 0
KSB1 121409Z 03003KT 26/09 A3019 RMK A01 T02630085  RH  033%=      5-min Rain = 0
KSB1 121410Z 03003KT 26/09 A3019 RMK A01 T02640086  RH  032%=      5-min Rain = 0
KSB1 121411Z 04002KT 27/09 A3019 RMK A01 T02650086  RH  032%=      5-min Rain = 0
KSB1 121412Z 03002KT 27/09 A3019 RMK A01 T02660086  RH  032%=      5-min Rain = 0
KSB1 121413Z 02003KT 27/09 A3018 RMK A01 T02670087  RH  032%=      5-min Rain = 0
KSB1 121414Z 01003KT 27/09 A3018 RMK A01 T02680086  RH  032%=      5-min Rain = 0
KSB1 121415Z 02002KT 27/09 A3018 RMK A01 T02680087  RH  032%=      5-min Rain = 0
KSB1 121416Z 03002KT 27/09 A3018 RMK A01 T02680087  RH  032%=      5-min Rain = 0
KSB1 121417Z 02003KT 27/09 A3018 RMK A01 T02690087  RH  032%=      5-min Rain = 0
KSB1 121418Z 01003KT 27/09 A3018 RMK A01 T02700087  RH  032%=      5-min Rain = 0
KSB1 121419Z 03003KT 27/09 A3019 RMK A01 T02710087  RH  031%=      5-min Rain = 0
KSB1 121420Z 04003KT 27/09 A3019 RMK A01 T02730087  RH  031%=      5-min Rain = 0
KSB1 121421Z 04003KT 28/09 A3019 RMK A01 T02750087  RH  031%=      5-min Rain = 0
KSB1 121422Z 03003KT 28/09 A3019 RMK A01 T02760087  RH  030%=      5-min Rain = 0
KSB1 121423Z 05003KT 28/09 A3019 RMK A01 T02780088  RH  030%=      5-min Rain = 0
KSB1 121424Z 06002KT 28/09 A3019 RMK A01 T02790087  RH  030%=      5-min Rain = 0
KSB1 121425Z 06002KT 28/09 A3019 RMK A01 T02800087  RH  030%=      5-min Rain = 0
KSB1 121426Z 06001KT 28/09 A3019 RMK A01 T02820088  RH  030%=      5-min Rain = 0
KSB1 121427Z 09002KT 28/09 A3019 RMK A01 T02840089  RH  029%=      5-min Rain = 0
KSB1 121428Z 11001KT 29/09 A3019 RMK A01 T02860088  RH  029%=      5-min Rain = 0
KSB1 121429Z 07001KT 29/09 A3019 RMK A01 T02860088  RH  029%=      5-min Rain = 0
KSB1 121430Z 00000KT 29/09 A3019 RMK A01 T02890089  RH  029%=      5-min Rain = 0
KSB1 121431Z 08000KT 29/09 A3019 RMK A01 T02910089  RH  028%=      5-min Rain = 0
KSB1 121432Z 13001KT 29/09 A3019 RMK A01 T02940089  RH  028%=      5-min Rain = 0
KSB1 121433Z 15002KT 30/09 A3019 RMK A01 T02960088  RH  027%=      5-min Rain = 0
KSB1 121434Z 18004KT 30/09 A3019 RMK A01 T02960087  RH  027%=      5-min Rain = 0
KSB1 121435Z 14003KT 30/09 A3019 RMK A01 T02960088  RH  027%=      5-min Rain = 0
KSB1 121436Z 14004KT 30/09 A3019 RMK A01 T02960088  RH  027%=      5-min Rain = 0
KSB1 121437Z 15003KT 30/09 A3019 RMK A01 T02970086  RH  027%=      5-min Rain = 0
KSB1 121438Z 12003KT 30/09 A3019 RMK A01 T02990089  RH  027%=      5-min Rain = 0
KSB1 121439Z 14002KT 30/09 A302 RMK A01 T03000088  RH  027%=      5-min Rain = 0
KSB1 121440Z 12002KT 30/09 A302 RMK A01 T03000087  RH  026%=      5-min Rain = 0
KSB1 121441Z 13003KT 30/09 A302 RMK A01 T03010088  RH  026%=      5-min Rain = 0
KSB1 121442Z 13003KT 30/09 A302 RMK A01 T03030088  RH  026%=      5-min Rain = 0
KSB1 121443Z 14004KT 30/09 A302 RMK A01 T03040088  RH  026%=      5-min Rain = 0
KSB1 121444Z 12003KT 30/09 A302 RMK A01 T03030088  RH  026%=      5-min Rain = 0
KSB1 121445Z 14003KT 30/09 A302 RMK A01 T03020088  RH  026%=      5-min Rain = 0
KSB1 121446Z 15003KT 30/09 A302 RMK A01 T03040089  RH  026%=      5-min Rain = 0
KSB1 121447Z 14004KT 31/09 A3019 RMK A01 T03050089  RH  026%=      5-min Rain = 0
KSB1 121448Z 15004KT 31/09 A3019 RMK A01 T03060089  RH  026%=      5-min Rain = 0
KSB1 121449Z 14004KT 31/09 A3019 RMK A01 T03050089  RH  026%=      5-min Rain = 0
KSB1 121450Z 12004KT 31/09 A3019 RMK A01 T03050089  RH  026%=      5-min Rain = 0
KSB1 121451Z 14004KT 31/09 A3019 RMK A01 T03060089  RH  026%=      5-min Rain = 0
KSB1 121452Z 14004KT 31/09 A3019 RMK A01 T03080088  RH  025%=      5-min Rain = 0
KSB1 121453Z 15005KT 31/09 A302 RMK A01 T03090089  RH  026%=      5-min Rain = 0
KSB1 121454Z 16006KT 31/09 A3019 RMK A01 T03110086  RH  025%=      5-min Rain = 0
KSB1 121455Z 14006KT 31/09 A3019 RMK A01 T03110086  RH  025%=      5-min Rain = 0
KSB1 121456Z 15007KT 31/09 A3019 RMK A01 T03130087  RH  025%=      5-min Rain = 0
KSB1 121457Z 15007KT 31/09 A3019 RMK A01 T03130085  RH  024%=      5-min Rain = 0
KSB1 121458Z 14005KT 31/08 A3019 RMK A01 T03130084  RH  024%=      5-min Rain = 0
KSB1 121459Z 14008KT 31/09 A3019 RMK A01 T03130086  RH  024%=      5-min Rain = 0
KSB1 121500Z 15009KT 31/09 A3019 RMK A01 T03140085  RH  024%=      5-min Rain = 0
KSB1 121501Z 16006KT 31/09 A3019 RMK A01 T03140085  RH  024%=      5-min Rain = 0
KSB1 121502Z 16007KT 31/09 A3019 RMK A01 T03140086  RH  024%=      5-min Rain = 0
KSB1 121503Z 16007KT 32/09 A3019 RMK A01 T03150086  RH  024%=      5-min Rain = 0
KSB1 121504Z 14007KT 32/09 A3019 RMK A01 T03160086  RH  024%=      5-min Rain = 0
KSB1 121505Z 14009KT 32/09 A3019 RMK A01 T03160086  RH  024%=      5-min Rain = 0
KSB1 121506Z 15008KT 32/09 A3019 RMK A01 T03160086  RH  024%=      5-min Rain = 0
KSB1 121507Z 14008KT 31/09 A3019 RMK A01 T03140085  RH  024%=      5-min Rain = 0
KSB1 121508Z 15009KT 32/09 A3019 RMK A01 T03150087  RH  024%=      5-min Rain = 0
KSB1 121509Z 14011KT 32/09 A3019 RMK A01 T03170086  RH  024%=      5-min Rain = 0
KSB1 121510Z 13012KT 32/09 A3019 RMK A01 T03180085  RH  024%=      5-min Rain = 0
KSB1 121511Z 15012KT 32/09 A3019 RMK A01 T03170085  RH  024%=      5-min Rain = 0
KSB1 121512Z 15008KT 32/09 A302 RMK A01 T03160086  RH  024%=      5-min Rain = 0
KSB1 121513Z 15010KT 32/09 A302 RMK A01 T03170086  RH  024%=      5-min Rain = 0
KSB1 121514Z 14009KT 32/09 A302 RMK A01 T03180085  RH  024%=      5-min Rain = 0
KSB1 121515Z 15010KT 32/09 A302 RMK A01 T03170086  RH  024%=      5-min Rain = 0
KSB1 121516Z 16010KT 32/09 A302 RMK A01 T03160086  RH  024%=      5-min Rain = 0
KSB1 121517Z 14009KT 32/09 A302 RMK A01 T03150087  RH  024%=      5-min Rain = 0
KSB1 121518Z 14012KT 32/09 A302 RMK A01 T03160087  RH  024%=      5-min Rain = 0
KSB1 121519Z 14008KT 32/09 A302 RMK A01 T03160086  RH  024%=      5-min Rain = 0
KSB1 121520Z 14007KT 32/09 A302 RMK A01 T03150086  RH  024%=      5-min Rain = 0
KSB1 121521Z 13009KT 32/09 A302 RMK A01 T03170087  RH  024%=      5-min Rain = 0
KSB1 121522Z 13010KT 32/09 A302 RMK A01 T03180087  RH  024%=      5-min Rain = 0
KSB1 121523Z 14009KT 32/09 A302 RMK A01 T03170087  RH  024%=      5-min Rain = 0
KSB1 121524Z 14007KT 32/09 A302 RMK A01 T03180087  RH  024%=      5-min Rain = 0
KSB1 121525Z 15010KT 32/09 A302 RMK A01 T03190088  RH  024%=      5-min Rain = 0
KSB1 121526Z 15008KT 32/09 A302 RMK A01 T03190086  RH  024%=      5-min Rain = 0
KSB1 121527Z 15008KT 32/09 A302 RMK A01 T03190087  RH  024%=      5-min Rain = 0
KSB1 121528Z 15007KT 32/09 A302 RMK A01 T03210089  RH  024%=      5-min Rain = 0
KSB1 121529Z 16010KT 32/09 A302 RMK A01 T03240089  RH  023%=      5-min Rain = 0
KSB1 121530Z 14010KT 32/09 A302 RMK A01 T03230087  RH  023%=      5-min Rain = 0
KSB1 121531Z 16008KT 32/09 A302 RMK A01 T03230087  RH  023%=      5-min Rain = 0
KSB1 121532Z 17011KT 33/09 A302 RMK A01 T03250087  RH  023%=      5-min Rain = 0
KSB1 121533Z 17013KT 33/08 A302 RMK A01 T03260083  RH  022%=      5-min Rain = 0
KSB1 121534Z 18015KT 33/08 A302 RMK A01 T03250083  RH  022%=      5-min Rain = 0
KSB1 121535Z 17013KT 32/08 A302 RMK A01 T03220082  RH  023%=      5-min Rain = 0
KSB1 121536Z 17013KT 32/08 A302 RMK A01 T03200081  RH  023%=      5-min Rain = 0
KSB1 121537Z 17013KT 32/08 A302 RMK A01 T03190082  RH  023%=      5-min Rain = 0
KSB1 121538Z 17012KT 32/08 A302 RMK A01 T03190082  RH  023%=      5-min Rain = 0
KSB1 121539Z 16012KT 32/08 A3019 RMK A01 T03190083  RH  023%=      5-min Rain = 0
KSB1 121540Z 15012KT 32/08 A302 RMK A01 T03200082  RH  023%=      5-min Rain = 0
KSB1 121541Z 15009KT 32/08 A3019 RMK A01 T03220082  RH  023%=      5-min Rain = 0
KSB1 121542Z 16012KT 32/08 A3019 RMK A01 T03230082  RH  023%=      5-min Rain = 0
KSB1 121543Z 18011KT 32/08 A3019 RMK A01 T03240082  RH  022%=      5-min Rain = 0
KSB1 121544Z 17012KT 32/08 A3019 RMK A01 T03230083  RH  023%=      5-min Rain = 0
KSB1 121545Z 16011KT 33/08 A3019 RMK A01 T03250084  RH  022%=      5-min Rain = 0
KSB1 121546Z 15010KT 33/08 A3019 RMK A01 T03250084  RH  022%=      5-min Rain = 0
KSB1 121547Z 18010KT 32/08 A3019 RMK A01 T03240084  RH  023%=      5-min Rain = 0
KSB1 121548Z 18011KT 33/08 A3019 RMK A01 T03250083  RH  022%=      5-min Rain = 0
KSB1 121549Z 17013KT 32/08 A3019 RMK A01 T03240082  RH  022%=      5-min Rain = 0
KSB1 121550Z 17010KT 32/08 A3019 RMK A01 T03220082  RH  023%=      5-min Rain = 0
KSB1 121551Z 17012KT 32/08 A3019 RMK A01 T03230083  RH  023%=      5-min Rain = 0
KSB1 121552Z 18011KT 32/08 A3019 RMK A01 T03240084  RH  023%=      5-min Rain = 0
KSB1 121553Z 17008KT 32/08 A3019 RMK A01 T03230083  RH  023%=      5-min Rain = 0
KSB1 121554Z 17010KT 32/08 A3019 RMK A01 T03230083  RH  023%=      5-min Rain = 0
KSB1 121555Z 18010KT 32/08 A3019 RMK A01 T03230083  RH  023%=      5-min Rain = 0
KSB1 121556Z 18010KT 32/08 A3019 RMK A01 T03240084  RH  023%=      5-min Rain = 0
KSB1 121557Z 17012KT 33/08 A3019 RMK A01 T03270084  RH  022%=      5-min Rain = 0
KSB1 121558Z 17008KT 33/08 A3019 RMK A01 T03260083  RH  022%=      5-min Rain = 0
KSB1 121559Z 17009KT 33/08 A3019 RMK A01 T03250083  RH  022%=      5-min Rain = 0
KSB1 121600Z 18008KT 33/08 A3019 RMK A01 T03260083  RH  022%=      5-min Rain = 0
KSB1 121601Z 16008KT 33/08 A3019 RMK A01 T03280084  RH  022%=      5-min Rain = 0
KSB1 121602Z 15010KT 33/08 A3019 RMK A01 T03300082  RH  022%=      5-min Rain = 0
KSB1 121603Z 16011KT 33/08 A3019 RMK A01 T03310081  RH  021%=      5-min Rain = 0
KSB1 121604Z 18009KT 33/08 A3019 RMK A01 T03290079  RH  021%=      5-min Rain = 0
KSB1 121605Z 17008KT 33/08 A3019 RMK A01 T03260080  RH  022%=      5-min Rain = 0
KSB1 121606Z 16009KT 33/08 A3019 RMK A01 T03260080  RH  022%=      5-min Rain = 0
KSB1 121607Z 16012KT 33/08 A3019 RMK A01 T03270081  RH  022%=      5-min Rain = 0
KSB1 121608Z 15010KT 33/08 A3019 RMK A01 T03290080  RH  021%=      5-min Rain = 0
KSB1 121609Z 15012KT 33/08 A3019 RMK A01 T03310081  RH  021%=      5-min Rain = 0
KSB1 121610Z 16009KT 33/08 A3019 RMK A01 T03340080  RH  021%=      5-min Rain = 0
KSB1 121611Z 16009KT 33/08 A3019 RMK A01 T03330078  RH  021%=      5-min Rain = 0
KSB1 121612Z 15008KT 33/08 A3019 RMK A01 T03310079  RH  021%=      5-min Rain = 0
KSB1 121613Z 16010KT 33/08 A3019 RMK A01 T03340082  RH  021%=      5-min Rain = 0
KSB1 121614Z 17009KT 34/08 A3019 RMK A01 T03350082  RH  021%=      5-min Rain = 0
KSB1 121615Z 15008KT 34/08 A3019 RMK A01 T03350080  RH  021%=      5-min Rain = 0
KSB1 121616Z 14008KT 34/08 A3019 RMK A01 T03370080  RH  021%=      5-min Rain = 0
KSB1 121617Z 14009KT 34/08 A3019 RMK A01 T03360081  RH  021%=      5-min Rain = 0
KSB1 121618Z 18010KT 34/08 A3019 RMK A01 T03370081  RH  021%=      5-min Rain = 0
KSB1 121619Z 17011KT 33/08 A3019 RMK A01 T03340078  RH  021%=      5-min Rain = 0
KSB1 121620Z 17011KT 33/08 A3019 RMK A01 T03310079  RH  021%=      5-min Rain = 0
KSB1 121621Z 17011KT 33/08 A3019 RMK A01 T03320080  RH  021%=      5-min Rain = 0
KSB1 121622Z 17012KT 33/08 A3019 RMK A01 T03320080  RH  021%=      5-min Rain = 0
KSB1 121623Z 17014KT 33/08 A3018 RMK A01 T03300081  RH  021%=      5-min Rain = 0
KSB1 121624Z 16011KT 33/08 A3019 RMK A01 T03300080  RH  021%=      5-min Rain = 0
KSB1 121625Z 18010KT 33/08 A3018 RMK A01 T03310080  RH  021%=      5-min Rain = 0
KSB1 121626Z 18010KT 33/08 A3018 RMK A01 T03310081  RH  021%=      5-min Rain = 0
KSB1 121627Z 18008KT 33/08 A3018 RMK A01 T03320081  RH  021%=      5-min Rain = 0
KSB1 121628Z 17011KT 33/08 A3018 RMK A01 T03320081  RH  021%=      5-min Rain = 0
KSB1 121629Z 16009KT 33/08 A3018 RMK A01 T03300079  RH  021%=      5-min Rain = 0
KSB1 121630Z 15012KT 33/08 A3018 RMK A01 T03300079  RH  021%=      5-min Rain = 0
KSB1 121631Z 16011KT 33/08 A3018 RMK A01 T03340080  RH  021%=      5-min Rain = 0
KSB1 121632Z 17010KT 34/08 A3018 RMK A01 T03350078  RH  020%=      5-min Rain = 0
KSB1 121633Z 15007KT 33/08 A3018 RMK A01 T03340077  RH  020%=      5-min Rain = 0
KSB1 121634Z 19009KT 33/08 A3018 RMK A01 T03340079  RH  021%=      5-min Rain = 0
KSB1 121635Z 16011KT 34/08 A3018 RMK A01 T03360080  RH  021%=      5-min Rain = 0
KSB1 121636Z 17011KT 34/08 A3018 RMK A01 T03380080  RH  020%=      5-min Rain = 0
KSB1 121637Z 15009KT 34/08 A3019 RMK A01 T03410079  RH  020%=      5-min Rain = 0
KSB1 121638Z 15010KT 34/08 A3019 RMK A01 T03400078  RH  020%=      5-min Rain = 0
KSB1 121639Z 16011KT 34/08 A3019 RMK A01 T03380077  RH  020%=      5-min Rain = 0
KSB1 121640Z 16009KT 34/08 A3019 RMK A01 T03350076  RH  020%=      5-min Rain = 0
KSB1 121641Z 17006KT 33/08 A3018 RMK A01 T03330076  RH  020%=      5-min Rain = 0
KSB1 121642Z 16009KT 33/08 A3018 RMK A01 T03330076  RH  020%=      5-min Rain = 0
KSB1 121643Z 18010KT 34/08 A3018 RMK A01 T03360078  RH  020%=      5-min Rain = 0
KSB1 121644Z 19010KT 34/08 A3019 RMK A01 T03370077  RH  020%=      5-min Rain = 0
KSB1 121645Z 20007KT 33/08 A3018 RMK A01 T03340075  RH  020%=      5-min Rain = 0
KSB1 121646Z 21007KT 33/08 A3018 RMK A01 T03340076  RH  020%=      5-min Rain = 0
KSB1 121647Z 17006G12KT 33/08 A3018 RMK A01 T03330077  RH  021%=      5-min Rain = 0
KSB1 121648Z 18010KT 34/08 A3018 RMK A01 T03370080  RH  020%=      5-min Rain = 0
KSB1 121649Z 19009KT 34/08 A3018 RMK A01 T03400078  RH  020%=      5-min Rain = 0
KSB1 121650Z 18009KT 34/08 A3018 RMK A01 T03390076  RH  020%=      5-min Rain = 0
KSB1 121651Z 20008KT 34/07 A3018 RMK A01 T03350074  RH  020%=      5-min Rain = 0
KSB1 121652Z 19006KT 33/08 A3018 RMK A01 T03340076  RH  020%=      5-min Rain = 0
KSB1 121653Z 17005KT 34/08 A3018 RMK A01 T03380078  RH  020%=      5-min Rain = 0
KSB1 121654Z 18005KT 34/08 A3018 RMK A01 T03410078  RH  020%=      5-min Rain = 0
KSB1 121655Z 19008KT 34/08 A3018 RMK A01 T03420077  RH  020%=      5-min Rain = 0
KSB1 121656Z 20009KT 34/08 A3018 RMK A01 T03420076  RH  019%=      5-min Rain = 0
KSB1 121657Z 19005KT 34/08 A3018 RMK A01 T03410076  RH  020%=      5-min Rain = 0
KSB1 121658Z 16007KT 34/08 A3018 RMK A01 T03410076  RH  019%=      5-min Rain = 0
KSB1 121659Z 19010KT 34/08 A3018 RMK A01 T03440077  RH  019%=      5-min Rain = 0
KSB1 121700Z 19009KT 34/08 A3018 RMK A01 T03440076  RH  019%=      5-min Rain = 0
KSB1 121701Z 20007KT 34/07 A3018 RMK A01 T03410074  RH  019%=      5-min Rain = 0
KSB1 121702Z 20007KT 34/07 A3018 RMK A01 T03380074  RH  020%=      5-min Rain = 0
KSB1 121703Z 21005KT 34/07 A3018 RMK A01 T03370074  RH  020%=      5-min Rain = 0
KSB1 121704Z 19005KT 34/08 A3018 RMK A01 T03380076  RH  020%=      5-min Rain = 0
KSB1 121705Z 18006KT 34/08 A3018 RMK A01 T03440077  RH  019%=      5-min Rain = 0
KSB1 121706Z 20005KT 34/07 A3018 RMK A01 T03430073  RH  019%=      5-min Rain = 0
KSB1 121707Z 18006KT 34/07 A3018 RMK A01 T03430073  RH  019%=      5-min Rain = 0
KSB1 121708Z 20009KT 34/08 A3018 RMK A01 T03440076  RH  019%=      5-min Rain = 0
KSB1 121709Z 20010KT 34/07 A3018 RMK A01 T03440074  RH  019%=      5-min Rain = 0
KSB1 121710Z 21008KT 34/07 A3018 RMK A01 T03410071  RH  019%=      5-min Rain = 0
KSB1 121711Z 22008KT 34/07 A3018 RMK A01 T03390071  RH  019%=      5-min Rain = 0
KSB1 121712Z 21008KT 34/07 A3018 RMK A01 T03410071  RH  019%=      5-min Rain = 0
KSB1 121713Z 22007KT 34/07 A3018 RMK A01 T03400070  RH  019%=      5-min Rain = 0
KSB1 121714Z 21004KT 34/07 A3018 RMK A01 T03390071  RH  019%=      5-min Rain = 0
KSB1 121715Z 21005KT 34/07 A3018 RMK A01 T03390072  RH  019%=      5-min Rain = 0
KSB1 121716Z 16003KT 34/07 A3018 RMK A01 T03400070  RH  019%=      5-min Rain = 0
KSB1 121717Z 15003KT 34/07 A3017 RMK A01 T03420071  RH  019%=      5-min Rain = 0
KSB1 121718Z 17003KT 35/07 A3017 RMK A01 T03450069  RH  018%=      5-min Rain = 0
KSB1 121719Z 18005KT 35/07 A3017 RMK A01 T03460070  RH  018%=      5-min Rain = 0
KSB1 121720Z 17006KT 35/07 A3017 RMK A01 T03460070  RH  018%=      5-min Rain = 0
KSB1 121721Z 17005KT 35/07 A3017 RMK A01 T03470068  RH  018%=      5-min Rain = 0
KSB1 121722Z 17004KT 35/07 A3017 RMK A01 T03460066  RH  018%=      5-min Rain = 0
KSB1 121723Z 16010KT 35/07 A3017 RMK A01 T03480071  RH  018%=      5-min Rain = 0
KSB1 121724Z 16010KT 35/07 A3017 RMK A01 T03500071  RH  018%=      5-min Rain = 0
KSB1 121725Z 18006KT 35/07 A3017 RMK A01 T03490068  RH  018%=      5-min Rain = 0
KSB1 121726Z 17006KT 35/07 A3017 RMK A01 T03490067  RH  018%=      5-min Rain = 0
KSB1 121727Z 16007KT 35/07 A3017 RMK A01 T03480067  RH  018%=      5-min Rain = 0
KSB1 121728Z 14007KT 35/07 A3017 RMK A01 T03510068  RH  017%=      5-min Rain = 0
KSB1 121729Z 13004KT 35/07 A3017 RMK A01 T03520068  RH  017%=      5-min Rain = 0
KSB1 121730Z 15004KT 35/07 A3017 RMK A01 T03510068  RH  017%=      5-min Rain = 0
KSB1 121731Z 15006KT 35/07 A3017 RMK A01 T03510067  RH  017%=      5-min Rain = 0
KSB1 121732Z 14007KT 35/06 A3017 RMK A01 T03520062  RH  017%=      5-min Rain = 0
KSB1 121733Z 14005KT 35/06 A3017 RMK A01 T03540062  RH  016%=      5-min Rain = 0
KSB1 121734Z 19004KT 36/06 A3017 RMK A01 T03550059  RH  016%=      5-min Rain = 0
KSB1 121735Z 24003KT 36/06 A3017 RMK A01 T03550058  RH  016%=      5-min Rain = 0
KSB1 121736Z 27003KT 35/06 A3016 RMK A01 T03540055  RH  016%=      5-min Rain = 0
KSB1 121737Z 29002KT 35/05 A3016 RMK A01 T03540052  RH  015%=      5-min Rain = 0
KSB1 121738Z 24002KT 35/05 A3016 RMK A01 T03540054  RH  016%=      5-min Rain = 0
KSB1 121739Z 19003KT 36/06 A3016 RMK A01 T03550056  RH  016%=      5-min Rain = 0
KSB1 121740Z 15007KT 35/06 A3016 RMK A01 T03540059  RH  016%=      5-min Rain = 0
KSB1 121741Z 13009KT 36/06 A3016 RMK A01 T03550059  RH  016%=      5-min Rain = 0
KSB1 121742Z 13008KT 36/06 A3016 RMK A01 T03550057  RH  016%=      5-min Rain = 0
KSB1 121743Z 11005KT 35/06 A3016 RMK A01 T03530055  RH  016%=      5-min Rain = 0
KSB1 121744Z 09005KT 35/05 A3016 RMK A01 T03530054  RH  016%=      5-min Rain = 0
KSB1 121745Z 11004KT 35/05 A3016 RMK A01 T03540052  RH  015%=      5-min Rain = 0
KSB1 121746Z 15009KT 35/05 A3016 RMK A01 T03540054  RH  016%=      5-min Rain = 0
KSB1 121747Z 15009KT 36/05 A3016 RMK A01 T03590054  RH  015%=      5-min Rain = 0
KSB1 121748Z 16008KT 36/05 A3016 RMK A01 T03610051  RH  015%=      5-min Rain = 0
KSB1 121749Z 15008KT 36/05 A3016 RMK A01 T03610047  RH  014%=      5-min Rain = 0
KSB1 121750Z 15007KT 36/04 A3016 RMK A01 T03620043  RH  014%=      5-min Rain = 0
KSB1 121751Z 15006KT 36/04 A3016 RMK A01 T03620041  RH  014%=      5-min Rain = 0
KSB1 121752Z 14006KT 36/04 A3016 RMK A01 T03600042  RH  014%=      5-min Rain = 0
KSB1 121753Z 15005KT 36/05 A3016 RMK A01 T03590049  RH  015%=      5-min Rain = 0
KSB1 121754Z 16006KT 36/04 A3016 RMK A01 T03580043  RH  014%=      5-min Rain = 0
KSB1 121755Z 17004KT 36/03 A3016 RMK A01 T03580033  RH  013%=      5-min Rain = 0
KSB1 121756Z 15003KT 36/04 A3016 RMK A01 T03570035  RH  013%=      5-min Rain = 0
KSB1 121757Z 01000KT 36/03 A3016 RMK A01 T03560026  RH  013%=      5-min Rain = 0
KSB1 121758Z 01001KT 36/03 A3016 RMK A01 T03570025  RH  013%=      5-min Rain = 0
KSB1 121759Z 03002KT 36/02 A3015 RMK A01 T03580021  RH  012%=      5-min Rain = 0
KSB1 121800Z 02003KT 36/03 A3015 RMK A01 T03560027  RH  013%=      5-min Rain = 0
KSB1 121801Z 02003KT 36/04 A3015 RMK A01 T03560040  RH  014%=      5-min Rain = 0
KSB1 121802Z 00003KT 36/04 A3015 RMK A01 T03580038  RH  014%=      5-min Rain = 0
KSB1 121803Z 10004KT 36/04 A3015 RMK A01 T03580036  RH  013%=      5-min Rain = 0
KSB1 121804Z 09007KT 36/03 A3015 RMK A01 T03590029  RH  013%=      5-min Rain = 0
KSB1 121805Z 10003KT 36/03 A3015 RMK A01 T03610030  RH  013%=      5-min Rain = 0
KSB1 121806Z 13003KT 36/04 A3015 RMK A01 T03590039  RH  014%=      5-min Rain = 0
KSB1 121807Z 14009G17KT 36/04 A3015 RMK A01 T03580041  RH  014%=      5-min Rain = 0
KSB1 121808Z 16009KT 36/03 A3015 RMK A01 T03640029  RH  012%=      5-min Rain = 0
KSB1 121809Z 17008KT 37/03 A3015 RMK A01 T03670026  RH  012%=      5-min Rain = 0
KSB1 121810Z 18008KT 36/02 A3015 RMK A01 T03630018  RH  011%=      5-min Rain = 0
KSB1 121811Z 19006KT 36/02 A3015 RMK A01 T03620015  RH  011%=      5-min Rain = 0
KSB1 121812Z 21006KT 36/02 A3015 RMK A01 T03620015  RH  011%=      5-min Rain = 0
KSB1 121813Z 22005KT 36/02 A3015 RMK A01 T03600016  RH  012%=      5-min Rain = 0
KSB1 121814Z 23005KT 36/02 A3015 RMK A01 T03590022  RH  012%=      5-min Rain = 0
KSB1 121815Z 22004KT 36/03 A3015 RMK A01 T03590026  RH  012%=      5-min Rain = 0
KSB1 121816Z 18002KT 36/03 A3015 RMK A01 T03600027  RH  012%=      5-min Rain = 0
KSB1 121817Z 17003KT 36/02 A3015 RMK A01 T03600020  RH  012%=      5-min Rain = 0
KSB1 121818Z 16002KT 36/02 A3015 RMK A01 T03600023  RH  012%=      5-min Rain = 0
KSB1 121819Z 16004KT 36/03 A3015 RMK A01 T03610025  RH  012%=      5-min Rain = 0
KSB1 121820Z 14008KT 37/03 A3015 RMK A01 T03650028  RH  012%=      5-min Rain = 0
KSB1 121821Z 13008KT 37/03 A3015 RMK A01 T03710026  RH  012%=      5-min Rain = 0
KSB1 121822Z 12007KT 37/03 A3015 RMK A01 T03720026  RH  012%=      5-min Rain = 0
KSB1 121823Z 12006KT 37/03 A3015 RMK A01 T03730025  RH  011%=      5-min Rain = 0
KSB1 121824Z 13004KT 37/02 A3015 RMK A01 T03710024  RH  012%=      5-min Rain = 0
KSB1 121825Z 15005KT 37/03 A3015 RMK A01 T03720025  RH  012%=      5-min Rain = 0
KSB1 121826Z 19005KT 37/02 A3015 RMK A01 T03700016  RH  011%=      5-min Rain = 0
KSB1 121827Z 22006KT 37/01 A3015 RMK A01 T03660010  RH  011%=      5-min Rain = 0
KSB1 121828Z 22006KT 37/02 A3015 RMK A01 T03650015  RH  011%=      5-min Rain = 0
KSB1 121829Z 21007KT 37/02 A3015 RMK A01 T03660023  RH  012%=      5-min Rain = 0
KSB1 121830Z 23007KT 37/02 A3015 RMK A01 T03660023  RH  012%=      5-min Rain = 0
KSB1 121831Z 21007KT 37/03 A3015 RMK A01 T03670025  RH  012%=      5-min Rain = 0
KSB1 121832Z 21006KT 37/02 A3015 RMK A01 T03680024  RH  012%=      5-min Rain = 0
KSB1 121833Z 19008KT 36/02 A3015 RMK A01 T03630022  RH  012%=      5-min Rain = 0
KSB1 121834Z 17008KT 36/02 A3015 RMK A01 T03600024  RH  012%=      5-min Rain = 0
KSB1 121835Z 17005KT 36/03 A3014 RMK A01 T03590026  RH  012%=      5-min Rain = 0
KSB1 121836Z 19004KT 36/02 A3014 RMK A01 T03580024  RH  012%=      5-min Rain = 0
KSB1 121837Z 18003KT 36/02 A3014 RMK A01 T03590023  RH  012%=      5-min Rain = 0
KSB1 121838Z 16006KT 36/02 A3014 RMK A01 T03620022  RH  012%=      5-min Rain = 0
KSB1 121839Z 17007KT 37/02 A3014 RMK A01 T03670023  RH  012%=      5-min Rain = 0
KSB1 121840Z 15007KT 37/02 A3014 RMK A01 T03700024  RH  012%=      5-min Rain = 0
KSB1 121841Z 14008KT 37/03 A3014 RMK A01 T03720029  RH  012%=      5-min Rain = 0
KSB1 121842Z 14008KT 37/03 A3014 RMK A01 T03730029  RH  012%=      5-min Rain = 0
KSB1 121843Z 14007G12KT 37/03 A3014 RMK A01 T03710028  RH  012%=      5-min Rain = 0
KSB1 121844Z 15008KT 37/03 A3014 RMK A01 T03700030  RH  012%=      5-min Rain = 0
KSB1 121845Z 16009KT 37/03 A3014 RMK A01 T03720031  RH  012%=      5-min Rain = 0
KSB1 121846Z 17007KT 37/03 A3014 RMK A01 T03680028  RH  012%=      5-min Rain = 0
KSB1 121847Z 18008KT 37/03 A3014 RMK A01 T03670030  RH  012%=      5-min Rain = 0
KSB1 121848Z 18006KT 36/03 A3014 RMK A01 T03640030  RH  012%=      5-min Rain = 0
KSB1 121849Z 18004KT 36/03 A3014 RMK A01 T03640032  RH  013%=      5-min Rain = 0
KSB1 121850Z 19004KT 37/03 A3014 RMK A01 T03670033  RH  013%=      5-min Rain = 0
KSB1 121851Z 24003KT 37/03 A3014 RMK A01 T03660031  RH  012%=      5-min Rain = 0
KSB1 121852Z 26004KT 36/03 A3014 RMK A01 T03610030  RH  013%=      5-min Rain = 0
KSB1 121853Z 22004KT 36/03 A3014 RMK A01 T03610032  RH  013%=      5-min Rain = 0
KSB1 121854Z 22004KT 36/03 A3014 RMK A01 T03610031  RH  013%=      5-min Rain = 0
KSB1 121855Z 20001KT 36/03 A3014 RMK A01 T03630032  RH  013%=      5-min Rain = 0
KSB1 121856Z 13007KT 36/04 A3014 RMK A01 T03640037  RH  013%=      5-min Rain = 0
KSB1 121857Z 11007KT 37/05 A3014 RMK A01 T03680048  RH  014%=      5-min Rain = 0
KSB1 121858Z 10007KT 37/05 A3013 RMK A01 T03700048  RH  014%=      5-min Rain = 0
KSB1 121859Z 11007KT 37/05 A3013 RMK A01 T03710045  RH  013%=      5-min Rain = 0
KSB1 121900Z 08006KT 37/05 A3013 RMK A01 T03700046  RH  014%=      5-min Rain = 0
KSB1 121901Z 09005KT 37/04 A3013 RMK A01 T03700044  RH  013%=      5-min Rain = 0
KSB1 121902Z 15011KT 37/04 A3013 RMK A01 T03690038  RH  013%=      5-min Rain = 0
KSB1 121903Z 17009KT 37/03 A3013 RMK A01 T03700032  RH  012%=      5-min Rain = 0
KSB1 121904Z 18008KT 37/03 A3013 RMK A01 T03680030  RH  012%=      5-min Rain = 0
KSB1 121905Z 15011KT 37/03 A3013 RMK A01 T03680032  RH  012%=      5-min Rain = 0
KSB1 121906Z 16008KT 37/04 A3013 RMK A01 T03740036  RH  012%=      5-min Rain = 0
KSB1 121907Z 18006KT 38/04 A3013 RMK A01 T03780038  RH  012%=      5-min Rain = 0
KSB1 121908Z 13011KT 38/04 A3013 RMK A01 T03810039  RH  012%=      5-min Rain = 0
KSB1 121909Z 14012KT 38/04 A3013 RMK A01 T03780039  RH  012%=      5-min Rain = 0
KSB1 121910Z 14011KT 38/04 A3013 RMK A01 T03770039  RH  012%=      5-min Rain = 0
KSB1 121911Z 15010KT 37/04 A3013 RMK A01 T03740036  RH  012%=      5-min Rain = 0
KSB1 121912Z 15009KT 37/04 A3013 RMK A01 T03710036  RH  013%=      5-min Rain = 0
KSB1 121913Z 15010KT 37/04 A3013 RMK A01 T03720039  RH  013%=      5-min Rain = 0
KSB1 121914Z 13009KT 37/04 A3013 RMK A01 T03730037  RH  013%=      5-min Rain = 0
KSB1 121915Z 12005KT 37/04 A3013 RMK A01 T03710036  RH  013%=      5-min Rain = 0
KSB1 121916Z 10006KT 37/04 A3013 RMK A01 T03680036  RH  013%=      5-min Rain = 0
KSB1 121917Z 09011KT 37/04 A3013 RMK A01 T03680036  RH  013%=      5-min Rain = 0
KSB1 121918Z 09010KT 37/04 A3013 RMK A01 T03700038  RH  013%=      5-min Rain = 0
KSB1 121919Z 09007KT 38/04 A3013 RMK A01 T03750039  RH  013%=      5-min Rain = 0
KSB1 121920Z 07005KT 38/04 A3013 RMK A01 T03750038  RH  012%=      5-min Rain = 0
KSB1 121921Z 07007G12KT 37/04 A3012 RMK A01 T03730038  RH  013%=      5-min Rain = 0
KSB1 121922Z 07009KT 37/04 A3012 RMK A01 T03730038  RH  013%=      5-min Rain = 0
KSB1 121923Z 09004KT 37/04 A3013 RMK A01 T03690035  RH  013%=      5-min Rain = 0
KSB1 121924Z 16005KT 37/04 A3013 RMK A01 T03660036  RH  013%=      5-min Rain = 0
KSB1 121925Z 17007KT 37/03 A3012 RMK A01 T03670033  RH  013%=      5-min Rain = 0
KSB1 121926Z 19005KT 37/03 A3012 RMK A01 T03670032  RH  012%=      5-min Rain = 0
KSB1 121927Z 19008KT 37/03 A3012 RMK A01 T03670033  RH  013%=      5-min Rain = 0
KSB1 121928Z 17008KT 37/04 A3012 RMK A01 T03670036  RH  013%=      5-min Rain = 0
KSB1 121929Z 15011G16KT 37/04 A3012 RMK A01 T03700039  RH  013%=      5-min Rain = 0
KSB1 121930Z 16012KT 38/04 A3012 RMK A01 T03750043  RH  013%=      5-min Rain = 0
KSB1 121931Z 17010KT 38/04 A3012 RMK A01 T03780043  RH  013%=      5-min Rain = 0
KSB1 121932Z 14013G18KT 38/04 A3012 RMK A01 T03770042  RH  013%=      5-min Rain = 0
KSB1 121933Z 15012KT 38/04 A3012 RMK A01 T03780043  RH  013%=      5-min Rain = 0
KSB1 121934Z 16013KT 38/04 A3012 RMK A01 T03800043  RH  013%=      5-min Rain = 0
KSB1 121935Z 15015KT 38/04 A3012 RMK A01 T03830044  RH  012%=      5-min Rain = 0
KSB1 121936Z 15016KT 38/04 A3012 RMK A01 T03830042  RH  012%=      5-min Rain = 0
KSB1 121937Z 16011KT 38/04 A3012 RMK A01 T03820042  RH  012%=      5-min Rain = 0
KSB1 121938Z 16010KT 38/04 A3012 RMK A01 T03810041  RH  012%=      5-min Rain = 0
KSB1 121939Z 15011KT 38/04 A3012 RMK A01 T03800042  RH  012%=      5-min Rain = 0
KSB1 121940Z 15009KT 38/04 A3012 RMK A01 T03790042  RH  012%=      5-min Rain = 0
KSB1 121941Z 15009KT 38/04 A3012 RMK A01 T03770041  RH  013%=      5-min Rain = 0
KSB1 121942Z 15010KT 38/04 A3012 RMK A01 T03780041  RH  012%=      5-min Rain = 0
KSB1 121943Z 16008KT 38/04 A3012 RMK A01 T03780040  RH  012%=      5-min Rain = 0
KSB1 121944Z 16012KT 38/04 A3012 RMK A01 T03760038  RH  012%=      5-min Rain = 0
KSB1 121945Z 15007KT 38/04 A3012 RMK A01 T03760037  RH  012%=      5-min Rain = 0
KSB1 121946Z 17007KT 37/04 A3012 RMK A01 T03740038  RH  012%=      5-min Rain = 0
KSB1 121947Z 18006KT 37/04 A3012 RMK A01 T03720038  RH  013%=      5-min Rain = 0
KSB1 121948Z 21004KT 37/04 A3012 RMK A01 T03710037  RH  013%=      5-min Rain = 0
KSB1 121949Z 22004KT 37/04 A3012 RMK A01 T03680035  RH  013%=      5-min Rain = 0
KSB1 121950Z 18006KT 37/04 A3012 RMK A01 T03670037  RH  013%=      5-min Rain = 0
KSB1 121951Z 17004KT 37/04 A3012 RMK A01 T03650037  RH  013%=      5-min Rain = 0
KSB1 121952Z 25002KT 36/04 A3012 RMK A01 T03630036  RH  013%=      5-min Rain = 0
KSB1 121953Z 30003KT 36/04 A3011 RMK A01 T03640037  RH  013%=      5-min Rain = 0
KSB1 121954Z 29004KT 37/04 A3011 RMK A01 T03660039  RH  013%=      5-min Rain = 0
KSB1 121955Z 28003KT 37/04 A3011 RMK A01 T03680039  RH  013%=      5-min Rain = 0
KSB1 121956Z 31002KT 37/04 A3011 RMK A01 T03730037  RH  012%=      5-min Rain = 0
KSB1 121957Z 20002KT 37/04 A3011 RMK A01 T03730038  RH  013%=      5-min Rain = 0
KSB1 121958Z 21003KT 37/04 A3011 RMK A01 T03710035  RH  012%=      5-min Rain = 0
KSB1 121959Z 20004KT 37/04 A3011 RMK A01 T03700035  RH  013%=      5-min Rain = 0
KSB1 122000Z 20013KT 37/04 A3011 RMK A01 T03720037  RH  013%=      5-min Rain = 0
KSB1 122001Z 19014KT 37/04 A3011 RMK A01 T03720035  RH  012%=      5-min Rain = 0
KSB1 122002Z 17011G17KT 37/03 A3011 RMK A01 T03700034  RH  012%=      5-min Rain = 0
KSB1 122003Z 16007KT 37/04 A3011 RMK A01 T03710035  RH  012%=      5-min Rain = 0
KSB1 122004Z 13008KT 37/04 A3011 RMK A01 T03730038  RH  013%=      5-min Rain = 0
KSB1 122005Z 12010KT 38/04 A3011 RMK A01 T03770040  RH  013%=      5-min Rain = 0
KSB1 122006Z 11007KT 37/04 A3011 RMK A01 T03740038  RH  012%=      5-min Rain = 0
KSB1 122007Z 13006KT 37/04 A3011 RMK A01 T03710038  RH  013%=      5-min Rain = 0
KSB1 122008Z 09006KT 37/04 A3011 RMK A01 T03740040  RH  013%=      5-min Rain = 0
KSB1 122009Z 05007KT 38/04 A3011 RMK A01 T03780039  RH  012%=      5-min Rain = 0
KSB1 122010Z 06004KT 38/04 A3011 RMK A01 T03750037  RH  012%=      5-min Rain = 0
KSB1 122011Z 07002KT 37/04 A3011 RMK A01 T03710039  RH  013%=      5-min Rain = 0
KSB1 122012Z 13002KT 37/04 A3011 RMK A01 T03700038  RH  013%=      5-min Rain = 0
KSB1 122013Z 15005KT 37/04 A3011 RMK A01 T03710039  RH  013%=      5-min Rain = 0
KSB1 122014Z 16004KT 38/04 A3011 RMK A01 T03750038  RH  012%=      5-min Rain = 0
KSB1 122015Z 14005KT 38/04 A3011 RMK A01 T03780039  RH  012%=      5-min Rain = 0
KSB1 122016Z 13003KT 38/04 A3011 RMK A01 T03770036  RH  012%=      5-min Rain = 0
KSB1 122017Z 16008KT 38/04 A3011 RMK A01 T03780038  RH  012%=      5-min Rain = 0
KSB1 122018Z 16007KT 38/04 A3011 RMK A01 T03810038  RH  012%=      5-min Rain = 0
KSB1 122019Z 17005KT 38/04 A3011 RMK A01 T03820037  RH  012%=      5-min Rain = 0
KSB1 122020Z 18005KT 38/04 A3011 RMK A01 T03810037  RH  012%=      5-min Rain = 0
KSB1 122021Z 18007KT 38/04 A3011 RMK A01 T03800035  RH  012%=      5-min Rain = 0
KSB1 122022Z 18010KT 38/04 A3011 RMK A01 T03780036  RH  012%=      5-min Rain = 0
KSB1 122023Z 18007G12KT 38/04 A3011 RMK A01 T03780036  RH  012%=      5-min Rain = 0
KSB1 122024Z 19005KT 37/03 A3011 RMK A01 T03730034  RH  012%=      5-min Rain = 0
KSB1 122025Z 18005KT 37/03 A3011 RMK A01 T03690033  RH  012%=      5-min Rain = 0
KSB1 122026Z 25005KT 37/04 A3011 RMK A01 T03690035  RH  013%=      5-min Rain = 0
KSB1 122027Z 25004KT 37/04 A3011 RMK A01 T03700036  RH  013%=      5-min Rain = 0
KSB1 122028Z 18008KT 37/04 A3011 RMK A01 T03710036  RH  013%=      5-min Rain = 0
KSB1 122029Z 17006G11KT 37/04 A3011 RMK A01 T03730037  RH  013%=      5-min Rain = 0
KSB1 122030Z 19007KT 37/04 A3011 RMK A01 T03710037  RH  013%=      5-min Rain = 0
KSB1 122031Z 24003KT 37/04 A301 RMK A01 T03710038  RH  013%=      5-min Rain = 0
KSB1 122032Z 28002KT 37/04 A301 RMK A01 T03730039  RH  013%=      5-min Rain = 0
KSB1 122033Z 33002KT 37/04 A301 RMK A01 T03730039  RH  013%=      5-min Rain = 0
KSB1 122034Z 31003KT 37/04 A301 RMK A01 T03720039  RH  013%=      5-min Rain = 0
KSB1 122035Z 28003KT 37/04 A301 RMK A01 T03720038  RH  013%=      5-min Rain = 0
KSB1 122036Z 16004KT 37/04 A301 RMK A01 T03730039  RH  013%=      5-min Rain = 0
KSB1 122037Z 14010KT 38/04 A301 RMK A01 T03770040  RH  012%=      5-min Rain = 0
KSB1 122038Z 18009KT 38/04 A301 RMK A01 T03790040  RH  012%=      5-min Rain = 0
KSB1 122039Z 18009KT 38/04 A301 RMK A01 T03810040  RH  012%=      5-min Rain = 0
KSB1 122040Z 21009KT 38/04 A301 RMK A01 T03820039  RH  012%=      5-min Rain = 0
KSB1 122041Z 30004KT 38/04 A301 RMK A01 T03810039  RH  012%=      5-min Rain = 0
KSB1 122042Z 04005KT 38/04 A301 RMK A01 T03790039  RH  012%=      5-min Rain = 0
KSB1 122043Z 09008KT 38/04 A301 RMK A01 T03790039  RH  012%=      5-min Rain = 0
KSB1 122044Z 13011KT 38/04 A301 RMK A01 T03810039  RH  012%=      5-min Rain = 0
KSB1 122045Z 14012KT 38/04 A301 RMK A01 T03820040  RH  012%=      5-min Rain = 0
KSB1 122046Z 13010G15KT 38/04 A301 RMK A01 T03830039  RH  012%=      5-min Rain = 0
KSB1 122047Z 17011G16KT 38/04 A3009 RMK A01 T03810039  RH  012%=      5-min Rain = 0
KSB1 122048Z 18014KT 38/04 A301 RMK A01 T03840040  RH  012%=      5-min Rain = 0
KSB1 122049Z 18012G17KT 38/04 A301 RMK A01 T03830039  RH  012%=      5-min Rain = 0
KSB1 122050Z 16009KT 38/04 A301 RMK A01 T03810038  RH  012%=      5-min Rain = 0
KSB1 122051Z 15006KT 38/04 A301 RMK A01 T03810038  RH  012%=      5-min Rain = 0
KSB1 122052Z 17005KT 38/04 A301 RMK A01 T03810038  RH  012%=      5-min Rain = 0
KSB1 122053Z 20004KT 38/04 A3009 RMK A01 T03800037  RH  012%=      5-min Rain = 0
KSB1 122054Z 21005KT 38/04 A3009 RMK A01 T03780038  RH  012%=      5-min Rain = 0
KSB1 122055Z 23004KT 38/04 A3009 RMK A01 T03780037  RH  012%=      5-min Rain = 0
KSB1 122056Z 15006KT 38/04 A3009 RMK A01 T03810039  RH  012%=      5-min Rain = 0
KSB1 122057Z 14007KT 38/04 A3009 RMK A01 T03820039  RH  012%=      5-min Rain = 0
KSB1 122058Z 14009G20KT 38/04 A3009 RMK A01 T03810039  RH  012%=      5-min Rain = 0
KSB1 122059Z 13017G23KT 38/04 A3009 RMK A01 T03820040  RH  012%=      5-min Rain = 0
KSB1 122100Z 15013KT 38/04 A301 RMK A01 T03820040  RH  012%=      5-min Rain = 0
KSB1 122101Z 16008KT 38/04 A301 RMK A01 T03810040  RH  012%=      5-min Rain = 0
KSB1 122102Z 18009KT 38/04 A3009 RMK A01 T03800040  RH  012%=      5-min Rain = 0
KSB1 122103Z 14004KT 38/04 A3009 RMK A01 T03790038  RH  012%=      5-min Rain = 0
KSB1 122104Z 10004KT 38/04 A3009 RMK A01 T03760038  RH  012%=      5-min Rain = 0
KSB1 122105Z 07004KT 38/04 A3009 RMK A01 T03760040  RH  012%=      5-min Rain = 0
KSB1 122106Z 02004KT 38/04 A3009 RMK A01 T03780039  RH  012%=      5-min Rain = 0
KSB1 122107Z 19001KT 38/04 A3009 RMK A01 T03790040  RH  012%=      5-min Rain = 0
KSB1 122108Z 16004KT 38/04 A3009 RMK A01 T03810040  RH  012%=      5-min Rain = 0
KSB1 122109Z 18003KT 38/04 A3009 RMK A01 T03780038  RH  012%=      5-min Rain = 0
KSB1 122110Z 15002KT 38/04 A3009 RMK A01 T03770039  RH  012%=      5-min Rain = 0
KSB1 122111Z 18004KT 38/04 A3009 RMK A01 T03810041  RH  012%=      5-min Rain = 0
KSB1 122112Z 16002KT 38/04 A3009 RMK A01 T03800039  RH  012%=      5-min Rain = 0
KSB1 122113Z 16005KT 38/04 A3009 RMK A01 T03800039  RH  012%=      5-min Rain = 0
KSB1 122114Z 20006KT 38/04 A3009 RMK A01 T03790038  RH  012%=      5-min Rain = 0
KSB1 122115Z 17007KT 38/04 A3009 RMK A01 T03780038  RH  012%=      5-min Rain = 0
KSB1 122116Z 22006KT 38/04 A3009 RMK A01 T03810041  RH  012%=      5-min Rain = 0
KSB1 122117Z 15004KT 38/04 A3009 RMK A01 T03820040  RH  012%=      5-min Rain = 0
KSB1 122118Z 12004KT 38/04 A3009 RMK A01 T03810039  RH  012%=      5-min Rain = 0
KSB1 122119Z 13009G15KT 38/04 A3009 RMK A01 T03800040  RH  012%=      5-min Rain = 0
KSB1 122120Z 14011KT 38/04 A3009 RMK A01 T03820042  RH  012%=      5-min Rain = 0
KSB1 122121Z 14016KT 38/04 A3009 RMK A01 T03830042  RH  012%=      5-min Rain = 0
KSB1 122122Z 13014KT 38/04 A3009 RMK A01 T03840042  RH  012%=      5-min Rain = 0
KSB1 122123Z 14017KT 38/04 A3009 RMK A01 T03830042  RH  012%=      5-min Rain = 0
KSB1 122124Z 15013KT 39/04 A3009 RMK A01 T03860042  RH  012%=      5-min Rain = 0
KSB1 122125Z 15012KT 38/04 A3009 RMK A01 T03840040  RH  012%=      5-min Rain = 0
KSB1 122126Z 16010KT 38/04 A3009 RMK A01 T03840041  RH  012%=      5-min Rain = 0
KSB1 122127Z 18005KT 38/04 A3009 RMK A01 T03830040  RH  012%=      5-min Rain = 0
KSB1 122128Z 22003KT 38/04 A3008 RMK A01 T03810040  RH  012%=      5-min Rain = 0
KSB1 122129Z 08004KT 38/04 A3008 RMK A01 T03800040  RH  012%=      5-min Rain = 0
KSB1 122130Z 09005KT 38/04 A3008 RMK A01 T03810041  RH  012%=      5-min Rain = 0
KSB1 122131Z 14005KT 38/04 A3008 RMK A01 T03840042  RH  012%=      5-min Rain = 0
KSB1 122132Z 18007KT 38/04 A3008 RMK A01 T03840041  RH  012%=      5-min Rain = 0
KSB1 122133Z 18007KT 38/04 A3008 RMK A01 T03830042  RH  012%=      5-min Rain = 0
KSB1 122134Z 17012KT 39/04 A3008 RMK A01 T03870042  RH  012%=      5-min Rain = 0
KSB1 122135Z 15011KT 39/04 A3008 RMK A01 T03850040  RH  012%=      5-min Rain = 0
KSB1 122136Z 16013G18KT 39/04 A3008 RMK A01 T03860042  RH  012%=      5-min Rain = 0
KSB1 122137Z 16010KT 39/04 A3008 RMK A01 T03880042  RH  012%=      5-min Rain = 0
KSB1 122138Z 18012KT 39/04 A3008 RMK A01 T03890041  RH  012%=      5-min Rain = 0
KSB1 122139Z 18009KT 38/04 A3008 RMK A01 T03830038  RH  012%=      5-min Rain = 0
KSB1 122140Z 17007KT 38/04 A3008 RMK A01 T03800040  RH  012%=      5-min Rain = 0
KSB1 122141Z 16007KT 38/04 A3008 RMK A01 T03820041  RH  012%=      5-min Rain = 0
KSB1 122142Z 15006KT 39/04 A3008 RMK A01 T03850041  RH  012%=      5-min Rain = 0
KSB1 122143Z 16007KT 39/04 A3008 RMK A01 T03850041  RH  012%=      5-min Rain = 0
KSB1 122144Z 17009KT 39/04 A3008 RMK A01 T03890043  RH  012%=      5-min Rain = 0
KSB1 122145Z 17014KT 40/04 A3008 RMK A01 T03960043  RH  012%=      5-min Rain = 0
KSB1 122146Z 17014KT 40/04 A3008 RMK A01 T03950040  RH  011%=      5-min Rain = 0
KSB1 122147Z 17012KT 39/04 A3008 RMK A01 T03900038  RH  011%=      5-min Rain = 0
KSB1 122148Z 18013KT 39/04 A3008 RMK A01 T03860038  RH  012%=      5-min Rain = 0
KSB1 122149Z 18012KT 39/04 A3008 RMK A01 T03850038  RH  012%=      5-min Rain = 0
KSB1 122150Z 20010KT 38/04 A3008 RMK A01 T03820037  RH  012%=      5-min Rain = 0
KSB1 122151Z 19010KT 38/04 A3008 RMK A01 T03790037  RH  012%=      5-min Rain = 0
KSB1 122152Z 19012KT 38/04 A3008 RMK A01 T03790037  RH  012%=      5-min Rain = 0
KSB1 122153Z 19010KT 38/04 A3008 RMK A01 T03790037  RH  012%=      5-min Rain = 0
KSB1 122154Z 14010KT 38/04 A3008 RMK A01 T03780038  RH  012%=      5-min Rain = 0
KSB1 122155Z 12010KT 38/04 A3008 RMK A01 T03790038  RH  012%=      5-min Rain = 0
KSB1 122156Z 10007KT 38/04 A3007 RMK A01 T03770036  RH  012%=      5-min Rain = 0
KSB1 122157Z 10006KT 38/04 A3007 RMK A01 T03750037  RH  012%=      5-min Rain = 0
KSB1 122158Z 13005KT 38/04 A3007 RMK A01 T03760038  RH  012%=      5-min Rain = 0
KSB1 122159Z 15007KT 38/04 A3007 RMK A01 T03780037  RH  012%=      5-min Rain = 0
KSB1 122200Z 16003KT 38/04 A3007 RMK A01 T03780037  RH  012%=      5-min Rain = 0
KSB1 122201Z 18003KT 38/04 A3007 RMK A01 T03770037  RH  012%=      5-min Rain = 0
KSB1 122202Z 16004KT 38/04 A3007 RMK A01 T03790038  RH  012%=      5-min Rain = 0
KSB1 122203Z 19003KT 38/04 A3007 RMK A01 T03810039  RH  012%=      5-min Rain = 0
KSB1 122204Z 23008KT 38/04 A3007 RMK A01 T03840040  RH  012%=      5-min Rain = 0
KSB1 122205Z 22008KT 38/04 A3007 RMK A01 T03830039  RH  012%=      5-min Rain = 0
KSB1 122206Z 22006KT 38/04 A3007 RMK A01 T03810038  RH  012%=      5-min Rain = 0
KSB1 122207Z 22008KT 38/04 A3007 RMK A01 T03800040  RH  012%=      5-min Rain = 0
KSB1 122208Z 23006KT 38/04 A3007 RMK A01 T03820039  RH  012%=      5-min Rain = 0
KSB1 122209Z 21010KT 38/04 A3007 RMK A01 T03800038  RH  012%=      5-min Rain = 0
KSB1 122210Z 22008KT 38/04 A3007 RMK A01 T03800038  RH  012%=      5-min Rain = 0
KSB1 122211Z 22005KT 38/04 A3007 RMK A01 T03790038  RH  012%=      5-min Rain = 0
KSB1 122212Z 21004KT 38/04 A3007 RMK A01 T03820039  RH  012%=      5-min Rain = 0
KSB1 122213Z 20004KT 38/04 A3007 RMK A01 T03840039  RH  012%=      5-min Rain = 0
KSB1 122214Z 18004KT 39/04 A3007 RMK A01 T03860040  RH  012%=      5-min Rain = 0
KSB1 122215Z 14005KT 39/04 A3007 RMK A01 T03880040  RH  012%=      5-min Rain = 0
KSB1 122216Z 16003KT 39/04 A3007 RMK A01 T03870038  RH  012%=      5-min Rain = 0
KSB1 122217Z 23003KT 39/04 A3007 RMK A01 T03850037  RH  012%=      5-min Rain = 0
KSB1 122218Z 22004KT 38/04 A3007 RMK A01 T03830037  RH  012%=      5-min Rain = 0
KSB1 122219Z 20005G10KT 38/04 A3006 RMK A01 T03830038  RH  012%=      5-min Rain = 0
KSB1 122220Z 18013KT 39/04 A3006 RMK A01 T03850037  RH  012%=      5-min Rain = 0
KSB1 122221Z 19012KT 39/04 A3006 RMK A01 T03870037  RH  012%=      5-min Rain = 0
KSB1 122222Z 18015KT 39/04 A3006 RMK A01 T03910036  RH  011%=      5-min Rain = 0
KSB1 122223Z 19012G17KT 39/03 A3006 RMK A01 T03890034  RH  011%=      5-min Rain = 0
KSB1 122224Z 20010KT 39/04 A3006 RMK A01 T03850035  RH  011%=      5-min Rain = 0
KSB1 122225Z 19008KT 39/04 A3006 RMK A01 T03850035  RH  012%=      5-min Rain = 0
KSB1 122226Z 19010KT 39/04 A3006 RMK A01 T03880038  RH  012%=      5-min Rain = 0
KSB1 122227Z 21007KT 39/03 A3006 RMK A01 T03870034  RH  011%=      5-min Rain = 0
KSB1 122228Z 23004KT 38/03 A3006 RMK A01 T03820033  RH  012%=      5-min Rain = 0
KSB1 122229Z 19002KT 38/04 A3006 RMK A01 T03840035  RH  012%=      5-min Rain = 0
KSB1 122230Z 16004G9KT 38/03 A3006 RMK A01 T03840034  RH  012%=      5-min Rain = 0
KSB1 122231Z 15012KT 39/03 A3006 RMK A01 T03850034  RH  011%=      5-min Rain = 0
KSB1 122232Z 14009KT 39/03 A3006 RMK A01 T03850032  RH  011%=      5-min Rain = 0
KSB1 122233Z 13014KT 38/03 A3006 RMK A01 T03830032  RH  011%=      5-min Rain = 0
KSB1 122234Z 14012KT 38/03 A3006 RMK A01 T03840033  RH  011%=      5-min Rain = 0
KSB1 122235Z 13009KT 38/03 A3006 RMK A01 T03830031  RH  011%=      5-min Rain = 0
KSB1 122236Z 12010KT 38/03 A3006 RMK A01 T03820031  RH  011%=      5-min Rain = 0
KSB1 122237Z 11006KT 38/03 A3006 RMK A01 T03790031  RH  012%=      5-min Rain = 0
KSB1 122238Z 18006KT 38/03 A3006 RMK A01 T03790032  RH  012%=      5-min Rain = 0
KSB1 122239Z 16005KT 38/03 A3006 RMK A01 T03800031  RH  012%=      5-min Rain = 0
KSB1 122240Z 17004KT 38/03 A3006 RMK A01 T03810032  RH  012%=      5-min Rain = 0
KSB1 122241Z 18005KT 38/03 A3006 RMK A01 T03810031  RH  011%=      5-min Rain = 0
KSB1 122242Z 20003KT 38/03 A3006 RMK A01 T03790031  RH  012%=      5-min Rain = 0
KSB1 122243Z 23003KT 38/03 A3006 RMK A01 T03810033  RH  012%=      5-min Rain = 0
KSB1 122244Z 20001KT 38/03 A3006 RMK A01 T03820032  RH  012%=      5-min Rain = 0
KSB1 122245Z 25001KT 38/03 A3006 RMK A01 T03820031  RH  011%=      5-min Rain = 0
KSB1 122246Z 23005KT 38/03 A3006 RMK A01 T03830032  RH  011%=      5-min Rain = 0
KSB1 122247Z 24002KT 38/03 A3006 RMK A01 T03820031  RH  011%=      5-min Rain = 0
KSB1 122248Z 25000KT 38/03 A3006 RMK A01 T03820031  RH  011%=      5-min Rain = 0
KSB1 122249Z 21001KT 38/03 A3005 RMK A01 T03820032  RH  011%=      5-min Rain = 0
KSB1 122250Z 15006KT 39/03 A3005 RMK A01 T03850033  RH  011%=      5-min Rain = 0
KSB1 122251Z 15005KT 39/03 A3006 RMK A01 T03870032  RH  011%=      5-min Rain = 0
KSB1 122252Z 13010KT 39/03 A3005 RMK A01 T03880033  RH  011%=      5-min Rain = 0
KSB1 122253Z 12009KT 39/03 A3005 RMK A01 T03870033  RH  011%=      5-min Rain = 0
KSB1 122254Z 10004KT 39/03 A3005 RMK A01 T03860032  RH  011%=      5-min Rain = 0
KSB1 122255Z 14002KT 38/03 A3005 RMK A01 T03840031  RH  011%=      5-min Rain = 0
KSB1 122256Z 08000KT 38/03 A3005 RMK A01 T03840031  RH  011%=      5-min Rain = 0
KSB1 122257Z 11006KT 38/03 A3005 RMK A01 T03840031  RH  011%=      5-min Rain = 0
KSB1 122258Z 10008KT 39/03 A3005 RMK A01 T03860033  RH  011%=      5-min Rain = 0
KSB1 122259Z 09006KT 39/03 A3005 RMK A01 T03850032  RH  011%=      5-min Rain = 0
KSB1 122300Z 12006KT 39/03 A3005 RMK A01 T03850033  RH  011%=      5-min Rain = 0
KSB1 122301Z 16009KT 38/03 A3005 RMK A01 T03840030  RH  011%=      5-min Rain = 0
KSB1 122302Z 16012G17KT 39/03 A3005 RMK A01 T03880026  RH  011%=      5-min Rain = 0
KSB1 122303Z 15013KT 39/02 A3005 RMK A01 T03880024  RH  010%=      5-min Rain = 0
KSB1 122304Z 16010KT 39/02 A3005 RMK A01 T03870023  RH  010%=      5-min Rain = 0
KSB1 122305Z 16008KT 39/02 A3005 RMK A01 T03880023  RH  010%=      5-min Rain = 0
KSB1 122306Z 16009KT 39/03 A3005 RMK A01 T03920025  RH  010%=      5-min Rain = 0
KSB1 122307Z 18013KT 39/02 A3005 RMK A01 T03940024  RH  010%=      5-min Rain = 0
KSB1 122308Z 18012KT 39/02 A3005 RMK A01 T03910022  RH  010%=      5-min Rain = 0
KSB1 122309Z 17013KT 39/02 A3005 RMK A01 T03860021  RH  010%=      5-min Rain = 0
KSB1 122310Z 16011KT 39/02 A3005 RMK A01 T03870023  RH  010%=      5-min Rain = 0
KSB1 122311Z 16008KT 39/03 A3005 RMK A01 T03900025  RH  010%=      5-min Rain = 0
KSB1 122312Z 19007KT 39/02 A3005 RMK A01 T03880023  RH  010%=      5-min Rain = 0
KSB1 122313Z 19007KT 39/03 A3005 RMK A01 T03890026  RH  011%=      5-min Rain = 0
KSB1 122314Z 21009KT 39/03 A3005 RMK A01 T03910027  RH  011%=      5-min Rain = 0
KSB1 122315Z 22010KT 39/03 A3005 RMK A01 T03920026  RH  010%=      5-min Rain = 0
KSB1 122316Z 21010KT 39/03 A3005 RMK A01 T03910025  RH  010%=      5-min Rain = 0
KSB1 122317Z 22009KT 39/02 A3005 RMK A01 T03900024  RH  010%=      5-min Rain = 0
KSB1 122318Z 22008KT 39/02 A3005 RMK A01 T03870023  RH  010%=      5-min Rain = 0
KSB1 122319Z 22008KT 38/02 A3005 RMK A01 T03830023  RH  011%=      5-min Rain = 0
KSB1 122320Z 21007KT 38/03 A3005 RMK A01 T03830025  RH  011%=      5-min Rain = 0
KSB1 122321Z 23007KT 38/02 A3004 RMK A01 T03820024  RH  011%=      5-min Rain = 0
KSB1 122322Z 22010KT 39/03 A3004 RMK A01 T03850026  RH  011%=      5-min Rain = 0
KSB1 122323Z 22009G14KT 39/03 A3004 RMK A01 T03870027  RH  011%=      5-min Rain = 0
KSB1 122324Z 23011KT 39/03 A3004 RMK A01 T03880026  RH  011%=      5-min Rain = 0
KSB1 122325Z 22008KT 38/02 A3004 RMK A01 T03830021  RH  011%=      5-min Rain = 0
KSB1 122326Z 22007KT 38/02 A3004 RMK A01 T03810023  RH  011%=      5-min Rain = 0
KSB1 122327Z 23006KT 38/02 A3004 RMK A01 T03810023  RH  011%=      5-min Rain = 0
KSB1 122328Z 21004KT 38/02 A3004 RMK A01 T03810022  RH  011%=      5-min Rain = 0
KSB1 122329Z 19001KT 38/02 A3004 RMK A01 T03840023  RH  011%=      5-min Rain = 0
KSB1 122330Z 21005KT 39/02 A3004 RMK A01 T03850023  RH  011%=      5-min Rain = 0
KSB1 122331Z 22006KT 39/02 A3004 RMK A01 T03850023  RH  011%=      5-min Rain = 0
KSB1 122332Z 22004KT 39/02 A3004 RMK A01 T03850023  RH  011%=      5-min Rain = 0
KSB1 122333Z 20006KT 38/02 A3004 RMK A01 T03830022  RH  011%=      5-min Rain = 0
KSB1 122334Z 21008G13KT 38/02 A3004 RMK A01 T03790021  RH  011%=      5-min Rain = 0
KSB1 122335Z 21011KT 38/02 A3004 RMK A01 T03810022  RH  011%=      5-min Rain = 0
KSB1 122336Z 20009KT 38/02 A3004 RMK A01 T03820022  RH  011%=      5-min Rain = 0
KSB1 122337Z 21009KT 38/02 A3004 RMK A01 T03830022  RH  011%=      5-min Rain = 0
KSB1 122338Z 21006KT 39/02 A3004 RMK A01 T03850022  RH  011%=      5-min Rain = 0
KSB1 122339Z 22007KT 39/02 A3004 RMK A01 T03860023  RH  011%=      5-min Rain = 0
KSB1 122340Z 20006KT 39/02 A3004 RMK A01 T03870023  RH  010%=      5-min Rain = 0
KSB1 122341Z 17005KT 39/02 A3004 RMK A01 T03850021  RH  010%=      5-min Rain = 0
KSB1 122342Z 14007KT 38/02 A3004 RMK A01 T03840022  RH  011%=      5-min Rain = 0
KSB1 122343Z 13008KT 38/02 A3004 RMK A01 T03840022  RH  011%=      5-min Rain = 0
KSB1 122344Z 15006KT 38/02 A3004 RMK A01 T03830022  RH  011%=      5-min Rain = 0
KSB1 122345Z 16006KT 38/02 A3004 RMK A01 T03830022  RH  011%=      5-min Rain = 0
KSB1 122346Z 15005KT 38/02 A3004 RMK A01 T03820021  RH  011%=      5-min Rain = 0
KSB1 122347Z 14004KT 38/02 A3004 RMK A01 T03820022  RH  011%=      5-min Rain = 0
KSB1 122348Z 11004KT 39/02 A3004 RMK A01 T03850023  RH  011%=      5-min Rain = 0
KSB1 122349Z 11009KT 39/02 A3004 RMK A01 T03870023  RH  010%=      5-min Rain = 0
KSB1 122350Z 10008KT 39/02 A3004 RMK A01 T03860022  RH  010%=      5-min Rain = 0
KSB1 122351Z 12008G14KT 38/02 A3004 RMK A01 T03830022  RH  011%=      5-min Rain = 0
KSB1 122352Z 15009KT 39/02 A3004 RMK A01 T03850023  RH  011%=      5-min Rain = 0
KSB1 122353Z 13009KT 39/02 A3004 RMK A01 T03870024  RH  011%=      5-min Rain = 0
KSB1 122354Z 14007KT 39/02 A3004 RMK A01 T03850023  RH  011%=      5-min Rain = 0
KSB1 122355Z 14007KT 38/02 A3004 RMK A01 T03840022  RH  011%=      5-min Rain = 0
KSB1 122356Z 12005KT 38/02 A3004 RMK A01 T03830022  RH  011%=      5-min Rain = 0
KSB1 122357Z 11005KT 38/02 A3004 RMK A01 T03820023  RH  011%=      5-min Rain = 0
KSB1 122358Z 13004KT 38/02 A3004 RMK A01 T03840023  RH  011%=      5-min Rain = 0
KSB1 122359Z 15007KT 39/02 A3004 RMK A01 T03850023  RH  011%=      5-min Rain = 0
KSB1 130000Z 18007KT 39/02 A3004 RMK A01 T03850020  RH  010%=      5-min Rain = 0
KSB1 130001Z 19007KT 38/02 A3004 RMK A01 T03840019  RH  010%=      5-min Rain = 0
KSB1 130002Z 19006KT 38/02 A3004 RMK A01 T03840020  RH  010%=      5-min Rain = 0
KSB1 130003Z 17006KT 38/02 A3004 RMK A01 T03820019  RH  010%=      5-min Rain = 0
KSB1 130004Z 16012KT 38/02 A3004 RMK A01 T03830019  RH  010%=      5-min Rain = 0
KSB1 130005Z 19011KT 39/02 A3004 RMK A01 T03850021  RH  010%=      5-min Rain = 0
KSB1 130006Z 18012KT 39/02 A3004 RMK A01 T03860020  RH  010%=      5-min Rain = 0
KSB1 130007Z 18011KT 39/02 A3004 RMK A01 T03850021  RH  010%=      5-min Rain = 0
KSB1 130008Z 16014KT 39/02 A3004 RMK A01 T03850020  RH  010%=      5-min Rain = 0
KSB1 130009Z 16010KT 38/02 A3004 RMK A01 T03830019  RH  010%=      5-min Rain = 0
KSB1 130010Z 18008KT 38/02 A3004 RMK A01 T03820019  RH  010%=      5-min Rain = 0
KSB1 130011Z 19007KT 38/02 A3004 RMK A01 T03800018  RH  011%=      5-min Rain = 0
KSB1 130012Z 18004KT 38/02 A3004 RMK A01 T03780018  RH  011%=      5-min Rain = 0
KSB1 130013Z 15002KT 38/02 A3004 RMK A01 T03760018  RH  011%=      5-min Rain = 0
KSB1 130014Z 19005KT 38/02 A3004 RMK A01 T03770019  RH  011%=      5-min Rain = 0
KSB1 130015Z 19005KT 38/02 A3004 RMK A01 T03790019  RH  011%=      5-min Rain = 0
KSB1 130016Z 21004KT 38/02 A3004 RMK A01 T03780019  RH  011%=      5-min Rain = 0
KSB1 130017Z 18004KT 38/02 A3004 RMK A01 T03780019  RH  011%=      5-min Rain = 0
KSB1 130018Z 20005KT 38/02 A3004 RMK A01 T03770018  RH  011%=      5-min Rain = 0
KSB1 130019Z 20005KT 38/02 A3004 RMK A01 T03760018  RH  011%=      5-min Rain = 0
KSB1 130020Z 20009KT 38/02 A3004 RMK A01 T03760018  RH  011%=      5-min Rain = 0
KSB1 130021Z 19009KT 38/02 A3004 RMK A01 T03770019  RH  011%=      5-min Rain = 0
KSB1 130022Z 21009KT 38/02 A3004 RMK A01 T03790019  RH  011%=      5-min Rain = 0
KSB1 130023Z 21009KT 38/02 A3004 RMK A01 T03800019  RH  011%=      5-min Rain = 0
KSB1 130024Z 18007KT 38/02 A3004 RMK A01 T03790020  RH  011%=      5-min Rain = 0
KSB1 130025Z 17007G13KT 38/02 A3004 RMK A01 T03790019  RH  011%=      5-min Rain = 0
KSB1 130026Z 20010G15KT 38/02 A3004 RMK A01 T03800020  RH  011%=      5-min Rain = 0
KSB1 130027Z 19008KT 38/02 A3004 RMK A01 T03800019  RH  011%=      5-min Rain = 0
KSB1 130028Z 18007KT 38/02 A3004 RMK A01 T03810019  RH  011%=      5-min Rain = 0
KSB1 130029Z 18010KT 38/02 A3004 RMK A01 T03800019  RH  011%=      5-min Rain = 0
KSB1 130030Z 14009KT 38/02 A3004 RMK A01 T03790019  RH  011%=      5-min Rain = 0
KSB1 130031Z 14008KT 38/02 A3004 RMK A01 T03790018  RH  011%=      5-min Rain = 0
KSB1 130032Z 15005KT 38/02 A3004 RMK A01 T03780018  RH  011%=      5-min Rain = 0
KSB1 130033Z 16005KT 38/02 A3004 RMK A01 T03780018  RH  011%=      5-min Rain = 0
KSB1 130034Z 15006KT 38/02 A3004 RMK A01 T03780018  RH  011%=      5-min Rain = 0
KSB1 130035Z 16007KT 38/02 A3004 RMK A01 T03790018  RH  011%=      5-min Rain = 0
KSB1 130036Z 16006KT 38/02 A3004 RMK A01 T03790018  RH  011%=      5-min Rain = 0
KSB1 130037Z 16007KT 38/02 A3004 RMK A01 T03800018  RH  011%=      5-min Rain = 0
KSB1 130038Z 12004KT 38/02 A3004 RMK A01 T03800018  RH  011%=      5-min Rain = 0
KSB1 130039Z 10004KT 38/02 A3004 RMK A01 T03780017  RH  011%=      5-min Rain = 0
KSB1 130040Z 08002KT 38/02 A3004 RMK A01 T03770018  RH  011%=      5-min Rain = 0
KSB1 130041Z 06001KT 38/02 A3004 RMK A01 T03770018  RH  011%=      5-min Rain = 0
KSB1 130042Z 17002KT 38/02 A3004 RMK A01 T03790020  RH  011%=      5-min Rain = 0
KSB1 130043Z 14004KT 38/02 A3004 RMK A01 T03810019  RH  011%=      5-min Rain = 0
KSB1 130044Z 13006KT 38/02 A3004 RMK A01 T03810018  RH  010%=      5-min Rain = 0
KSB1 130045Z 15004KT 38/02 A3004 RMK A01 T03800018  RH  011%=      5-min Rain = 0
KSB1 130046Z 15002KT 38/02 A3004 RMK A01 T03800019  RH  011%=      5-min Rain = 0
KSB1 130047Z 13003KT 38/02 A3004 RMK A01 T03800018  RH  010%=      5-min Rain = 0
KSB1 130048Z 13004KT 38/02 A3004 RMK A01 T03800018  RH  011%=      5-min Rain = 0
KSB1 130049Z 13004KT 38/02 A3004 RMK A01 T03800018  RH  011%=      5-min Rain = 0
KSB1 130050Z 11004KT 38/02 A3004 RMK A01 T03770018  RH  011%=      5-min Rain = 0
KSB1 130051Z 16008G15KT 38/02 A3004 RMK A01 T03760018  RH  011%=      5-min Rain = 0
KSB1 130052Z 20011KT 38/02 A3004 RMK A01 T03760019  RH  011%=      5-min Rain = 0
KSB1 130053Z 21008KT 38/02 A3004 RMK A01 T03760020  RH  011%=      5-min Rain = 0
KSB1 130054Z 21006KT 38/02 A3004 RMK A01 T03760019  RH  011%=      5-min Rain = 0
KSB1 130055Z 21007KT 38/02 A3004 RMK A01 T03760019  RH  011%=      5-min Rain = 0
KSB1 130056Z 19007KT 38/02 A3004 RMK A01 T03760020  RH  011%=      5-min Rain = 0
KSB1 130057Z 18008KT 38/02 A3004 RMK A01 T03760020  RH  011%=      5-min Rain = 0
KSB1 130058Z 18010KT 38/02 A3004 RMK A01 T03760019  RH  011%=      5-min Rain = 0
KSB1 130059Z 17008KT 38/02 A3004 RMK A01 T03750018  RH  011%=      5-min Rain = 0
KSB1 130100Z 17008KT 38/02 A3004 RMK A01 T03750019  RH  011%=      5-min Rain = 0
KSB1 130101Z 16009KT 38/02 A3004 RMK A01 T03760019  RH  011%=      5-min Rain = 0
KSB1 130102Z 18009KT 38/02 A3004 RMK A01 T03770020  RH  011%=      5-min Rain = 0
KSB1 130103Z 18010KT 38/02 A3004 RMK A01 T03760019  RH  011%=      5-min Rain = 0
KSB1 130104Z 17010KT 37/02 A3004 RMK A01 T03740018  RH  011%=      5-min Rain = 0
KSB1 130105Z 17011KT 37/02 A3004 RMK A01 T03730019  RH  011%=      5-min Rain = 0
KSB1 130106Z 18011KT 37/02 A3004 RMK A01 T03730019  RH  011%=      5-min Rain = 0
KSB1 130107Z 18009KT 37/02 A3004 RMK A01 T03720018  RH  011%=      5-min Rain = 0
KSB1 130108Z 18008KT 37/02 A3004 RMK A01 T03720019  RH  011%=      5-min Rain = 0
KSB1 130109Z 17006KT 37/02 A3004 RMK A01 T03720019  RH  011%=      5-min Rain = 0
KSB1 130110Z 17006KT 37/02 A3004 RMK A01 T03720020  RH  011%=      5-min Rain = 0
KSB1 130111Z 16008KT 37/02 A3004 RMK A01 T03720020  RH  011%=      5-min Rain = 0
KSB1 130112Z 17008KT 37/02 A3004 RMK A01 T03720021  RH  011%=      5-min Rain = 0
KSB1 130113Z 18011KT 37/02 A3004 RMK A01 T03720021  RH  011%=      5-min Rain = 0
KSB1 130114Z 18009KT 37/02 A3004 RMK A01 T03710021  RH  011%=      5-min Rain = 0
KSB1 130115Z 17009KT 37/02 A3004 RMK A01 T03720022  RH  011%=      5-min Rain = 0
KSB1 130116Z 17009KT 37/02 A3004 RMK A01 T03720022  RH  011%=      5-min Rain = 0
KSB1 130117Z 17009KT 37/02 A3004 RMK A01 T03710022  RH  011%=      5-min Rain = 0
KSB1 130118Z 17008KT 37/02 A3004 RMK A01 T03700022  RH  011%=      5-min Rain = 0
KSB1 130119Z 17009KT 37/02 A3004 RMK A01 T03700022  RH  011%=      5-min Rain = 0
KSB1 130120Z 17008KT 37/02 A3004 RMK A01 T03700022  RH  011%=      5-min Rain = 0
KSB1 130121Z 18009KT 37/02 A3004 RMK A01 T03700022  RH  011%=      5-min Rain = 0
KSB1 130122Z 19008KT 37/02 A3004 RMK A01 T03690022  RH  011%=      5-min Rain = 0
KSB1 130123Z 17005KT 37/02 A3004 RMK A01 T03680023  RH  012%=      5-min Rain = 0
KSB1 130124Z 16007KT 37/02 A3004 RMK A01 T03680023  RH  012%=      5-min Rain = 0
KSB1 130125Z 16008KT 37/02 A3004 RMK A01 T03690023  RH  012%=      5-min Rain = 0
KSB1 130126Z 16007KT 37/02 A3004 RMK A01 T03690022  RH  011%=      5-min Rain = 0
KSB1 130127Z 16006KT 37/02 A3004 RMK A01 T03690022  RH  011%=      5-min Rain = 0
KSB1 130128Z 16005KT 37/02 A3004 RMK A01 T03690023  RH  012%=      5-min Rain = 0
KSB1 130129Z 16004KT 37/02 A3004 RMK A01 T03690023  RH  012%=      5-min Rain = 0
KSB1 130130Z 19004KT 37/02 A3004 RMK A01 T03690023  RH  012%=      5-min Rain = 0
KSB1 130131Z 18006KT 37/02 A3004 RMK A01 T03680022  RH  012%=      5-min Rain = 0
KSB1 130132Z 18008KT 37/02 A3004 RMK A01 T03680023  RH  012%=      5-min Rain = 0
KSB1 130133Z 18008KT 37/02 A3004 RMK A01 T03670022  RH  012%=      5-min Rain = 0
KSB1 130134Z 17007KT 37/02 A3004 RMK A01 T03660022  RH  012%=      5-min Rain = 0
KSB1 130135Z 17007KT 37/02 A3004 RMK A01 T03660022  RH  012%=      5-min Rain = 0
KSB1 130136Z 17006KT 37/02 A3004 RMK A01 T03660022  RH  012%=      5-min Rain = 0
KSB1 130137Z 17006KT 37/02 A3004 RMK A01 T03650022  RH  012%=      5-min Rain = 0
KSB1 130138Z 18006KT 36/02 A3004 RMK A01 T03640022  RH  012%=      5-min Rain = 0
KSB1 130139Z 17006KT 36/02 A3004 RMK A01 T03640022  RH  012%=      5-min Rain = 0
KSB1 130140Z 17007KT 36/02 A3004 RMK A01 T03640022  RH  012%=      5-min Rain = 0
KSB1 130141Z 19006KT 36/02 A3004 RMK A01 T03630022  RH  012%=      5-min Rain = 0
KSB1 130142Z 19007KT 36/02 A3004 RMK A01 T03620022  RH  012%=      5-min Rain = 0
KSB1 130143Z 19008KT 36/02 A3004 RMK A01 T03610023  RH  012%=      5-min Rain = 0
KSB1 130144Z 19007KT 36/02 A3004 RMK A01 T03600024  RH  012%=      5-min Rain = 0
KSB1 130145Z 19007KT 36/02 A3004 RMK A01 T03590024  RH  012%=      5-min Rain = 0
KSB1 130146Z 19009KT 36/02 A3004 RMK A01 T03580024  RH  012%=      5-min Rain = 0
KSB1 130147Z 19009KT 36/02 A3004 RMK A01 T03580024  RH  012%=      5-min Rain = 0
KSB1 130148Z 19007KT 36/02 A3004 RMK A01 T03580024  RH  012%=      5-min Rain = 0
KSB1 130149Z 20008KT 36/02 A3004 RMK A01 T03580024  RH  012%=      5-min Rain = 0
KSB1 130150Z 20007KT 36/02 A3004 RMK A01 T03580024  RH  012%=      5-min Rain = 0
KSB1 130151Z 20008KT 36/02 A3004 RMK A01 T03580024  RH  012%=      5-min Rain = 0
KSB1 130152Z 21007KT 36/02 A3004 RMK A01 T03570024  RH  012%=      5-min Rain = 0
KSB1 130153Z 21008KT 36/02 A3004 RMK A01 T03550024  RH  013%=      5-min Rain = 0
KSB1 130154Z 21008KT 35/02 A3004 RMK A01 T03530024  RH  013%=      5-min Rain = 0
KSB1 130155Z 20008KT 35/02 A3004 RMK A01 T03520024  RH  013%=      5-min Rain = 0
KSB1 130156Z 20008KT 35/03 A3004 RMK A01 T03510025  RH  013%=      5-min Rain = 0
KSB1 130157Z 18006KT 35/02 A3004 RMK A01 T03500024  RH  013%=      5-min Rain = 0
KSB1 130158Z 18007KT 35/03 A3004 RMK A01 T03490025  RH  013%=      5-min Rain = 0
KSB1 130159Z 19006KT 35/03 A3004 RMK A01 T03490025  RH  013%=      5-min Rain = 0
KSB1 130200Z 19006KT 35/02 A3004 RMK A01 T03480024  RH  013%=      5-min Rain = 0
KSB1 130201Z 19006KT 35/03 A3004 RMK A01 T03480025  RH  013%=      5-min Rain = 0
KSB1 130202Z 18006KT 35/02 A3004 RMK A01 T03470024  RH  013%=      5-min Rain = 0
KSB1 130203Z 18007KT 35/02 A3004 RMK A01 T03460024  RH  013%=      5-min Rain = 0
KSB1 130204Z 18006KT 35/02 A3004 RMK A01 T03450024  RH  013%=      5-min Rain = 0
KSB1 130205Z 18007KT 35/02 A3004 RMK A01 T03450024  RH  013%=      5-min Rain = 0
KSB1 130206Z 18007KT 34/02 A3004 RMK A01 T03440024  RH  013%=      5-min Rain = 0
KSB1 130207Z 19006KT 34/02 A3004 RMK A01 T03430023  RH  013%=      5-min Rain = 0
KSB1 130208Z 18006KT 34/02 A3004 RMK A01 T03420023  RH  013%=      5-min Rain = 0
KSB1 130209Z 18006KT 34/02 A3004 RMK A01 T03410023  RH  013%=      5-min Rain = 0
KSB1 130210Z 18006KT 34/02 A3004 RMK A01 T03410023  RH  013%=      5-min Rain = 0
KSB1 130211Z 18006KT 34/02 A3004 RMK A01 T03400024  RH  014%=      5-min Rain = 0
KSB1 130212Z 18006KT 34/02 A3004 RMK A01 T03390023  RH  014%=      5-min Rain = 0
KSB1 130213Z 18006KT 34/02 A3004 RMK A01 T03380023  RH  014%=      5-min Rain = 0
KSB1 130214Z 18007KT 34/02 A3004 RMK A01 T03380022  RH  014%=      5-min Rain = 0
KSB1 130215Z 18008KT 34/02 A3004 RMK A01 T03380022  RH  014%=      5-min Rain = 0
KSB1 130216Z 18008KT 34/02 A3004 RMK A01 T03390022  RH  014%=      5-min Rain = 0
KSB1 130217Z 18008KT 34/02 A3004 RMK A01 T03400021  RH  013%=      5-min Rain = 0
KSB1 130218Z 18008KT 34/02 A3004 RMK A01 T03400021  RH  013%=      5-min Rain = 0
KSB1 130219Z 18008KT 34/02 A3004 RMK A01 T03410021  RH  013%=      5-min Rain = 0
KSB1 130220Z 18008KT 34/02 A3004 RMK A01 T03410021  RH  013%=      5-min Rain = 0
KSB1 130221Z 18008KT 34/02 A3004 RMK A01 T03410021  RH  013%=      5-min Rain = 0
KSB1 130222Z 18009KT 34/02 A3004 RMK A01 T03400021  RH  013%=      5-min Rain = 0
KSB1 130223Z 18008KT 34/02 A3004 RMK A01 T03400021  RH  013%=      5-min Rain = 0
KSB1 130224Z 18008KT 34/02 A3004 RMK A01 T03400021  RH  013%=      5-min Rain = 0
KSB1 130225Z 18008KT 34/02 A3004 RMK A01 T03390020  RH  013%=      5-min Rain = 0
KSB1 130226Z 18008KT 34/02 A3004 RMK A01 T03390020  RH  013%=      5-min Rain = 0
KSB1 130227Z 18008KT 34/02 A3004 RMK A01 T03390020  RH  013%=      5-min Rain = 0
KSB1 130228Z 18009KT 34/02 A3004 RMK A01 T03390020  RH  013%=      5-min Rain = 0
KSB1 130229Z 18008KT 34/02 A3004 RMK A01 T03380020  RH  013%=      5-min Rain = 0
KSB1 130230Z 19008KT 34/02 A3004 RMK A01 T03390021  RH  013%=      5-min Rain = 0
KSB1 130231Z 19008KT 34/02 A3004 RMK A01 T03390021  RH  013%=      5-min Rain = 0
KSB1 130232Z 19007KT 34/02 A3005 RMK A01 T03370020  RH  013%=      5-min Rain = 0
KSB1 130233Z 19007KT 34/02 A3005 RMK A01 T03360020  RH  014%=      5-min Rain = 0
KSB1 130234Z 19007KT 34/02 A3005 RMK A01 T03350020  RH  014%=      5-min Rain = 0
KSB1 130235Z 19007KT 33/02 A3005 RMK A01 T03330020  RH  014%=      5-min Rain = 0
KSB1 130236Z 19007KT 33/02 A3005 RMK A01 T03320020  RH  014%=      5-min Rain = 0
KSB1 130237Z 19007KT 33/02 A3005 RMK A01 T03320020  RH  014%=      5-min Rain = 0
KSB1 130238Z 19008KT 33/02 A3005 RMK A01 T03310020  RH  014%=      5-min Rain = 0
KSB1 130239Z 19008KT 33/02 A3005 RMK A01 T03310020  RH  014%=      5-min Rain = 0
KSB1 130240Z 19008KT 33/02 A3005 RMK A01 T03310020  RH  014%=      5-min Rain = 0
KSB1 130241Z 19008KT 33/02 A3005 RMK A01 T03310021  RH  014%=      5-min Rain = 0
KSB1 130242Z 18009KT 33/02 A3005 RMK A01 T03320021  RH  014%=      5-min Rain = 0
KSB1 130243Z 18008KT 33/02 A3005 RMK A01 T03330020  RH  014%=      5-min Rain = 0
KSB1 130244Z 19007KT 33/02 A3005 RMK A01 T03330020  RH  014%=      5-min Rain = 0
KSB1 130245Z 19007KT 33/02 A3005 RMK A01 T03330020  RH  014%=      5-min Rain = 0
KSB1 130246Z 18009KT 33/02 A3005 RMK A01 T03320019  RH  014%=      5-min Rain = 0
KSB1 130247Z 18008KT 33/02 A3005 RMK A01 T03330020  RH  014%=      5-min Rain = 0
KSB1 130248Z 19007KT 34/02 A3005 RMK A01 T03370020  RH  013%=      5-min Rain = 0
KSB1 130249Z 19008KT 34/02 A3005 RMK A01 T03350018  RH  014%=      5-min Rain = 0
KSB1 130250Z 18008KT 33/02 A3005 RMK A01 T03330018  RH  014%=      5-min Rain = 0
KSB1 130251Z 18007KT 33/02 A3005 RMK A01 T03320018  RH  014%=      5-min Rain = 0
KSB1 130252Z 18008KT 33/02 A3005 RMK A01 T03310018  RH  014%=      5-min Rain = 0
KSB1 130253Z 19007KT 33/02 A3005 RMK A01 T03310018  RH  014%=      5-min Rain = 0
KSB1 130254Z 18008KT 33/02 A3005 RMK A01 T03320018  RH  014%=      5-min Rain = 0
KSB1 130255Z 18008KT 33/02 A3005 RMK A01 T03320017  RH  014%=      5-min Rain = 0
KSB1 130256Z 18008KT 33/02 A3005 RMK A01 T03320017  RH  014%=      5-min Rain = 0
KSB1 130257Z 18007KT 33/02 A3005 RMK A01 T03320017  RH  014%=      5-min Rain = 0
KSB1 130258Z 18007KT 33/02 A3005 RMK A01 T03320017  RH  014%=      5-min Rain = 0
KSB1 130259Z 18007KT 33/02 A3005 RMK A01 T03310017  RH  014%=      5-min Rain = 0
KSB1 130300Z 18007KT 33/02 A3005 RMK A01 T03310017  RH  014%=      5-min Rain = 0
KSB1 130301Z 18007KT 33/02 A3005 RMK A01 T03310017  RH  014%=      5-min Rain = 0
KSB1 130302Z 18008KT 33/02 A3005 RMK A01 T03300017  RH  014%=      5-min Rain = 0
KSB1 130303Z 18008KT 33/02 A3005 RMK A01 T03310017  RH  014%=      5-min Rain = 0
KSB1 130304Z 18008KT 33/02 A3005 RMK A01 T03320017  RH  014%=      5-min Rain = 0
KSB1 130305Z 18008KT 33/02 A3005 RMK A01 T03320017  RH  014%=      5-min Rain = 0
KSB1 130306Z 19008KT 33/02 A3005 RMK A01 T03310016  RH  014%=      5-min Rain = 0
KSB1 130307Z 19008KT 33/02 A3005 RMK A01 T03310016  RH  014%=      5-min Rain = 0
KSB1 130308Z 19008KT 33/02 A3006 RMK A01 T03300017  RH  014%=      5-min Rain = 0
KSB1 130309Z 19008KT 33/02 A3006 RMK A01 T03290016  RH  014%=      5-min Rain = 0
KSB1 130310Z 19007KT 33/02 A3006 RMK A01 T03290016  RH  014%=      5-min Rain = 0
KSB1 130311Z 19007KT 33/02 A3006 RMK A01 T03280016  RH  014%=      5-min Rain = 0
KSB1 130312Z 19008KT 33/02 A3006 RMK A01 T03270016  RH  014%=      5-min Rain = 0
KSB1 130313Z 19007KT 33/02 A3006 RMK A01 T03280017  RH  014%=      5-min Rain = 0
KSB1 130314Z 19008KT 33/02 A3006 RMK A01 T03270017  RH  014%=      5-min Rain = 0
KSB1 130315Z 19007KT 33/02 A3006 RMK A01 T03260016  RH  014%=      5-min Rain = 0
KSB1 130316Z 20006KT 33/02 A3006 RMK A01 T03250016  RH  014%=      5-min Rain = 0
KSB1 130317Z 20007KT 32/02 A3006 RMK A01 T03220015  RH  014%=      5-min Rain = 0
KSB1 130318Z 20007KT 32/02 A3006 RMK A01 T03180015  RH  014%=      5-min Rain = 0
KSB1 130319Z 20007KT 32/02 A3006 RMK A01 T03160015  RH  015%=      5-min Rain = 0
KSB1 130320Z 20007KT 31/02 A3006 RMK A01 T03130015  RH  015%=      5-min Rain = 0
KSB1 130321Z 19007KT 31/02 A3006 RMK A01 T03120015  RH  015%=      5-min Rain = 0
KSB1 130322Z 19008KT 31/02 A3006 RMK A01 T03110016  RH  015%=      5-min Rain = 0
KSB1 130323Z 20007KT 31/02 A3006 RMK A01 T03110016  RH  015%=      5-min Rain = 0
KSB1 130324Z 20008KT 31/02 A3006 RMK A01 T03110017  RH  015%=      5-min Rain = 0
KSB1 130325Z 19009KT 31/02 A3006 RMK A01 T03110017  RH  015%=      5-min Rain = 0
KSB1 130326Z 19007KT 31/02 A3006 RMK A01 T03110017  RH  015%=      5-min Rain = 0
KSB1 130327Z 20007KT 31/02 A3006 RMK A01 T03120017  RH  015%=      5-min Rain = 0
KSB1 130328Z 20008KT 31/02 A3006 RMK A01 T03120018  RH  015%=      5-min Rain = 0
KSB1 130329Z 20008KT 31/02 A3006 RMK A01 T03140017  RH  015%=      5-min Rain = 0
KSB1 130330Z 20008KT 32/02 A3006 RMK A01 T03150018  RH  015%=      5-min Rain = 0
KSB1 130331Z 21007KT 32/02 A3006 RMK A01 T03150018  RH  015%=      5-min Rain = 0
KSB1 130332Z 21006KT 31/02 A3006 RMK A01 T03140017  RH  015%=      5-min Rain = 0
KSB1 130333Z 22007KT 31/02 A3006 RMK A01 T03120016  RH  015%=      5-min Rain = 0
KSB1 130334Z 21007KT 31/02 A3006 RMK A01 T03100015  RH  015%=      5-min Rain = 0
KSB1 130335Z 21007KT 31/02 A3006 RMK A01 T03090015  RH  015%=      5-min Rain = 0
KSB1 130336Z 22007KT 31/02 A3006 RMK A01 T03080015  RH  015%=      5-min Rain = 0
KSB1 130337Z 21007KT 31/02 A3006 RMK A01 T03070015  RH  015%=      5-min Rain = 0
KSB1 130338Z 21007KT 31/02 A3006 RMK A01 T03060015  RH  016%=      5-min Rain = 0
KSB1 130339Z 21006KT 31/02 A3006 RMK A01 T03060015  RH  016%=      5-min Rain = 0
KSB1 130340Z 21007KT 31/02 A3006 RMK A01 T03070016  RH  015%=      5-min Rain = 0
KSB1 130341Z 21006KT 31/02 A3006 RMK A01 T03080016  RH  015%=      5-min Rain = 0
KSB1 130342Z 21006KT 31/02 A3006 RMK A01 T03090016  RH  015%=      5-min Rain = 0
KSB1 130343Z 21006KT 31/02 A3006 RMK A01 T03100016  RH  015%=      5-min Rain = 0
KSB1 130344Z 21007KT 31/02 A3006 RMK A01 T03100016  RH  015%=      5-min Rain = 0
KSB1 130345Z 21007KT 31/02 A3006 RMK A01 T03100016  RH  015%=      5-min Rain = 0
KSB1 130346Z 21007KT 31/02 A3006 RMK A01 T03090016  RH  015%=      5-min Rain = 0
KSB1 130347Z 21007KT 31/02 A3007 RMK A01 T03090016  RH  015%=      5-min Rain = 0
KSB1 130348Z 21007KT 31/02 A3007 RMK A01 T03080016  RH  015%=      5-min Rain = 0
KSB1 130349Z 21007KT 31/02 A3007 RMK A01 T03080017  RH  016%=      5-min Rain = 0
KSB1 130350Z 21007KT 31/02 A3007 RMK A01 T03080016  RH  015%=      5-min Rain = 0
KSB1 130351Z 21007KT 31/02 A3007 RMK A01 T03080016  RH  015%=      5-min Rain = 0
KSB1 130352Z 21007KT 31/02 A3007 RMK A01 T03080016  RH  016%=      5-min Rain = 0
KSB1 130353Z 21007KT 31/02 A3007 RMK A01 T03080016  RH  016%=      5-min Rain = 0
KSB1 130354Z 21007KT 31/02 A3007 RMK A01 T03070016  RH  016%=      5-min Rain = 0
KSB1 130355Z 22007KT 31/02 A3007 RMK A01 T03070016  RH  016%=      5-min Rain = 0
KSB1 130356Z 21007KT 31/02 A3007 RMK A01 T03060016  RH  016%=      5-min Rain = 0
KSB1 130357Z 21007KT 31/02 A3007 RMK A01 T03060016  RH  016%=      5-min Rain = 0
KSB1 130358Z 22007KT 31/02 A3007 RMK A01 T03070016  RH  016%=      5-min Rain = 0
KSB1 130359Z 22007KT 31/02 A3007 RMK A01 T03070016  RH  016%=      5-min Rain = 0
KSB1 130400Z 21007KT 31/02 A3007 RMK A01 T03060016  RH  016%=      5-min Rain = 0
KSB1 130401Z 22007KT 31/02 A3007 RMK A01 T03060016  RH  016%=      5-min Rain = 0
KSB1 130402Z 21007KT 31/02 A3007 RMK A01 T03050016  RH  016%=      5-min Rain = 0
KSB1 130403Z 21008KT 31/02 A3007 RMK A01 T03050017  RH  016%=      5-min Rain = 0
KSB1 130404Z 21008KT 31/02 A3007 RMK A01 T03050016  RH  016%=      5-min Rain = 0
KSB1 130405Z 21008KT 30/02 A3007 RMK A01 T03040016  RH  016%=      5-min Rain = 0
KSB1 130406Z 21008KT 30/02 A3007 RMK A01 T03040016  RH  016%=      5-min Rain = 0
KSB1 130407Z 21008KT 30/02 A3007 RMK A01 T03040016  RH  016%=      5-min Rain = 0
KSB1 130408Z 21008KT 31/02 A3007 RMK A01 T03050016  RH  016%=      5-min Rain = 0
KSB1 130409Z 21008KT 31/02 A3007 RMK A01 T03050016  RH  016%=      5-min Rain = 0
KSB1 130410Z 21008KT 30/02 A3007 RMK A01 T03040016  RH  016%=      5-min Rain = 0
KSB1 130411Z 21007KT 30/02 A3007 RMK A01 T03040016  RH  016%=      5-min Rain = 0
KSB1 130412Z 22007KT 30/02 A3008 RMK A01 T03040016  RH  016%=      5-min Rain = 0
KSB1 130413Z 22007KT 30/02 A3008 RMK A01 T03040016  RH  016%=      5-min Rain = 0
KSB1 130414Z 21007KT 31/02 A3008 RMK A01 T03050017  RH  016%=      5-min Rain = 0
KSB1 130415Z 22007KT 31/02 A3008 RMK A01 T03050016  RH  016%=      5-min Rain = 0
KSB1 130416Z 21007KT 31/02 A3008 RMK A01 T03050017  RH  016%=      5-min Rain = 0
KSB1 130417Z 22007KT 31/02 A3008 RMK A01 T03060017  RH  016%=      5-min Rain = 0
KSB1 130418Z 22007KT 31/02 A3008 RMK A01 T03070017  RH  016%=      5-min Rain = 0
KSB1 130419Z 22006KT 31/02 A3008 RMK A01 T03070017  RH  016%=      5-min Rain = 0
KSB1 130420Z 22006KT 31/02 A3008 RMK A01 T03070017  RH  016%=      5-min Rain = 0
KSB1 130421Z 22006KT 31/02 A3008 RMK A01 T03080017  RH  016%=      5-min Rain = 0
KSB1 130422Z 22006KT 31/02 A3008 RMK A01 T03080017  RH  016%=      5-min Rain = 0
KSB1 130423Z 22007KT 31/02 A3008 RMK A01 T03080017  RH  016%=      5-min Rain = 0
KSB1 130424Z 22006KT 31/02 A3008 RMK A01 T03070016  RH  016%=      5-min Rain = 0
KSB1 130425Z 22007KT 31/02 A3008 RMK A01 T03060016  RH  016%=      5-min Rain = 0
KSB1 130426Z 22007KT 31/02 A3008 RMK A01 T03050016  RH  016%=      5-min Rain = 0
KSB1 130427Z 22007KT 31/02 A3008 RMK A01 T03050016  RH  016%=      5-min Rain = 0
KSB1 130428Z 21007KT 31/02 A3008 RMK A01 T03050016  RH  016%=      5-min Rain = 0
KSB1 130429Z 22007KT 30/02 A3008 RMK A01 T03040016  RH  016%=      5-min Rain = 0
KSB1 130430Z 22008KT 30/02 A3008 RMK A01 T03020015  RH  016%=      5-min Rain = 0
KSB1 130431Z 22007KT 30/02 A3008 RMK A01 T03020016  RH  016%=      5-min Rain = 0
KSB1 130432Z 22007KT 30/02 A3008 RMK A01 T03020017  RH  016%=      5-min Rain = 0
KSB1 130433Z 22007KT 30/02 A3008 RMK A01 T03010016  RH  016%=      5-min Rain = 0
KSB1 130434Z 22007KT 30/02 A3008 RMK A01 T03000015  RH  016%=      5-min Rain = 0
KSB1 130435Z 22007KT 30/02 A3008 RMK A01 T02990015  RH  016%=      5-min Rain = 0
KSB1 130436Z 22007KT 30/02 A3008 RMK A01 T02980016  RH  016%=      5-min Rain = 0
KSB1 130437Z 22006KT 30/02 A3008 RMK A01 T02980016  RH  016%=      5-min Rain = 0
KSB1 130438Z 22007KT 30/02 A3008 RMK A01 T02980015  RH  016%=      5-min Rain = 0
KSB1 130439Z 22007KT 30/02 A3008 RMK A01 T02980016  RH  016%=      5-min Rain = 0
KSB1 130440Z 23007KT 30/02 A3008 RMK A01 T02980016  RH  016%=      5-min Rain = 0
KSB1 130441Z 22007KT 30/02 A3008 RMK A01 T02980016  RH  016%=      5-min Rain = 0
KSB1 130442Z 23007KT 30/02 A3008 RMK A01 T02980016  RH  016%=      5-min Rain = 0
KSB1 130443Z 22007KT 30/02 A3008 RMK A01 T02980016  RH  016%=      5-min Rain = 0
KSB1 130444Z 23007KT 30/02 A3008 RMK A01 T02980016  RH  016%=      5-min Rain = 0
KSB1 130445Z 23007KT 30/02 A3008 RMK A01 T02980016  RH  016%=      5-min Rain = 0
KSB1 130446Z 23007KT 30/02 A3008 RMK A01 T02980016  RH  016%=      5-min Rain = 0
KSB1 130447Z 23007KT 30/02 A3008 RMK A01 T02980016  RH  016%=      5-min Rain = 0
KSB1 130448Z 23007KT 30/02 A3008 RMK A01 T02970016  RH  016%=      5-min Rain = 0
KSB1 130449Z 23007KT 30/02 A3008 RMK A01 T02970016  RH  016%=      5-min Rain = 0
KSB1 130450Z 23008KT 30/02 A3008 RMK A01 T02960016  RH  016%=      5-min Rain = 0
KSB1 130451Z 23008KT 30/02 A3008 RMK A01 T02960016  RH  016%=      5-min Rain = 0
KSB1 130452Z 23008KT 30/02 A3008 RMK A01 T02960016  RH  016%=      5-min Rain = 0
KSB1 130453Z 24008KT 30/02 A3008 RMK A01 T02970016  RH  016%=      5-min Rain = 0
KSB1 130454Z 23008KT 30/02 A3008 RMK A01 T02970016  RH  016%=      5-min Rain = 0
KSB1 130455Z 23008KT 30/02 A3008 RMK A01 T02970016  RH  016%=      5-min Rain = 0
KSB1 130456Z 23008KT 30/02 A3008 RMK A01 T02980016  RH  016%=      5-min Rain = 0
KSB1 130457Z 23009KT 30/02 A3008 RMK A01 T02970016  RH  016%=      5-min Rain = 0
KSB1 130458Z 23008KT 30/02 A3008 RMK A01 T02960016  RH  017%=      5-min Rain = 0
KSB1 130459Z 23009KT 30/02 A3008 RMK A01 T02950016  RH  017%=      5-min Rain = 0

Page generated in 0.072 seconds.